Time,TemperatureF,DewpointF,PressureIn,WindDirection,WindDirectionDegrees,WindSpeedMPH,WindSpeedGustMPH,Humidity,HourlyPrecipIn,Conditions,Clouds,dailyrainin,SoftwareType,DateUTC
2013-08-25 00:00:00,62.4,60.0,30.35,NE,48,0.0,0.0,92,0.00,CLR,OVC,0.00,WeatherDisplay:10.37,2013-08-25 04:00:00,
2013-08-25 00:01:00,62.4,60.0,30.35,NE,48,0.0,0.0,92,0.00,CLR,OVC,0.00,WeatherDisplay:10.37,2013-08-25 04:01:00,
2013-08-25 00:02:00,62.4,60.0,30.35,NE,48,0.0,0.0,92,0.00,CLR,OVC,0.00,WeatherDisplay:10.37,2013-08-25 04:02:00,
2013-08-25 00:06:00,62.3,59.9,30.35,NE,48,0.0,0.0,92,0.00,CLR,OVC,0.00,WeatherDisplay:10.37,2013-08-25 04:06:00,
2013-08-25 00:07:00,62.1,59.7,30.35,NE,48,0.0,0.0,92,0.00,CLR,OVC,0.00,WeatherDisplay:10.37,2013-08-25 04:07:00,
2013-08-25 00:08:00,62.1,59.7,30.35,NE,48,0.0,0.0,92,0.00,CLR,OVC,0.00,WeatherDisplay:10.37,2013-08-25 04:08:00,
2013-08-25 00:09:00,62.1,59.7,30.35,NE,48,0.0,0.0,92,0.00,CLR,OVC,0.00,WeatherDisplay:10.37,2013-08-25 04:09:00,
2013-08-25 00:11:00,62.0,59.6,30.35,NE,48,0.0,0.0,92,0.00,CLR,OVC,0.00,WeatherDisplay:10.37,2013-08-25 04:11:00,
2013-08-25 00:12:00,61.8,59.5,30.35,NE,48,0.0,0.0,92,0.00,CLR,OVC,0.00,WeatherDisplay:10.37,2013-08-25 04:12:00,
2013-08-25 00:13:00,61.8,59.5,30.35,NE,48,0.0,0.0,92,0.00,CLR,OVC,0.00,WeatherDisplay:10.37,2013-08-25 04:13:00,
2013-08-25 00:15:00,61.6,59.3,30.35,NE,48,0.0,0.0,92,0.00,CLR,OVC,0.00,WeatherDisplay:10.37,2013-08-25 04:15:00,
2013-08-25 00:17:00,61.5,59.2,30.35,NE,48,0.0,0.0,92,0.00,CLR,OVC,0.00,WeatherDisplay:10.37,2013-08-25 04:17:00,
2013-08-25 00:19:00,61.5,59.5,30.35,NE,48,0.0,0.0,93,0.00,CLR,OVC,0.00,WeatherDisplay:10.37,2013-08-25 04:19:00,
2013-08-25 00:22:00,61.6,59.6,30.35,NE,48,0.0,0.0,93,0.00,CLR,OVC,0.00,WeatherDisplay:10.37,2013-08-25 04:22:00,
2013-08-25 00:23:00,61.6,59.6,30.35,NE,48,0.0,0.0,93,0.00,CLR,OVC,0.00,WeatherDisplay:10.37,2013-08-25 04:23:00,
2013-08-25 00:24:00,61.6,59.6,30.35,NE,48,0.0,0.0,93,0.00,CLR,OVC,0.00,WeatherDisplay:10.37,2013-08-25 04:24:00,
2013-08-25 00:26:00,61.6,59.6,30.35,NE,48,0.0,0.0,93,0.00,CLR,OVC,0.00,WeatherDisplay:10.37,2013-08-25 04:26:00,
2013-08-25 00:27:00,61.6,59.6,30.35,NE,48,0.0,0.0,93,0.00,CLR,OVC,0.00,WeatherDisplay:10.37,2013-08-25 04:27:00,
2013-08-25 00:28:00,61.6,59.6,30.35,NE,48,0.0,0.0,93,0.00,CLR,OVC,0.00,WeatherDisplay:10.37,2013-08-25 04:28:00,
2013-08-25 00:29:00,61.6,59.6,30.35,NE,48,0.0,0.0,93,0.00,CLR,OVC,0.00,WeatherDisplay:10.37,2013-08-25 04:29:00,
2013-08-25 00:30:00,61.6,59.6,30.35,NE,48,0.0,0.0,93,0.00,CLR,OVC,0.00,WeatherDisplay:10.37,2013-08-25 04:30:00,
2013-08-25 00:32:00,61.5,59.5,30.35,NE,48,0.0,0.0,93,0.00,CLR,OVC,0.00,WeatherDisplay:10.37,2013-08-25 04:32:00,
2013-08-25 00:34:00,61.5,59.5,30.35,NE,48,0.0,0.0,93,0.00,CLR,OVC,0.00,WeatherDisplay:10.37,2013-08-25 04:34:00,
2013-08-25 00:35:00,61.5,59.5,30.35,NE,48,0.0,0.0,93,0.00,CLR,OVC,0.00,WeatherDisplay:10.37,2013-08-25 04:35:00,
2013-08-25 00:39:00,61.6,59.9,30.35,NE,48,0.0,0.0,94,0.00,CLR,OVC,0.00,WeatherDisplay:10.37,2013-08-25 04:39:00,
2013-08-25 00:40:00,61.6,59.9,30.35,NE,48,0.0,0.0,94,0.00,CLR,OVC,0.00,WeatherDisplay:10.37,2013-08-25 04:40:00,
2013-08-25 00:44:00,61.8,60.1,30.35,NE,48,0.0,0.0,94,0.00,CLR,OVC,0.00,WeatherDisplay:10.37,2013-08-25 04:44:00,
2013-08-25 00:45:00,61.8,60.1,30.35,NE,48,0.0,0.0,94,0.00,CLR,OVC,0.00,WeatherDisplay:10.37,2013-08-25 04:45:00,
2013-08-25 00:46:00,61.6,59.9,30.35,NE,48,0.0,0.0,94,0.00,CLR,OVC,0.00,WeatherDisplay:10.37,2013-08-25 04:46:00,
2013-08-25 00:47:00,61.6,59.6,30.35,NE,48,0.0,0.0,93,0.00,CLR,OVC,0.00,WeatherDisplay:10.37,2013-08-25 04:47:00,
2013-08-25 00:49:00,61.5,59.5,30.35,NE,48,0.0,0.0,93,0.00,CLR,OVC,0.00,WeatherDisplay:10.37,2013-08-25 04:49:00,
2013-08-25 00:50:00,61.5,59.5,30.35,NE,48,0.0,0.0,93,0.00,CLR,OVC,0.00,WeatherDisplay:10.37,2013-08-25 04:50:00,
2013-08-25 00:51:00,61.3,59.3,30.35,NE,48,0.0,0.0,93,0.00,CLR,OVC,0.00,WeatherDisplay:10.37,2013-08-25 04:51:00,
2013-08-25 00:52:00,61.3,59.3,30.35,NE,48,0.0,0.0,93,0.00,CLR,OVC,0.00,WeatherDisplay:10.37,2013-08-25 04:52:00,
2013-08-25 00:53:00,61.2,59.5,30.35,NE,48,0.0,0.0,94,0.00,CLR,OVC,0.00,WeatherDisplay:10.37,2013-08-25 04:53:00,
2013-08-25 00:54:00,61.2,59.5,30.35,NE,48,0.0,0.0,94,0.00,CLR,OVC,0.00,WeatherDisplay:10.37,2013-08-25 04:54:00,
2013-08-25 00:55:00,61.2,59.5,30.35,NE,48,0.0,0.0,94,0.00,CLR,OVC,0.00,WeatherDisplay:10.37,2013-08-25 04:55:00,
2013-08-25 00:57:00,61.0,59.3,30.35,NE,48,0.0,0.0,94,0.00,CLR,OVC,0.00,WeatherDisplay:10.37,2013-08-25 04:57:00,
2013-08-25 00:58:00,61.0,59.3,30.35,NE,48,0.0,0.0,94,0.00,CLR,OVC,0.00,WeatherDisplay:10.37,2013-08-25 04:58:00,
2013-08-25 00:59:00,61.0,59.3,30.35,NE,48,0.0,0.0,94,0.00,CLR,OVC,0.00,WeatherDisplay:10.37,2013-08-25 04:59:00,
2013-08-25 01:00:00,61.0,59.3,30.35,NE,48,0.0,0.0,94,0.00,CLR,OVC,0.00,WeatherDisplay:10.37,2013-08-25 05:00:00,
2013-08-25 01:02:00,60.9,59.2,30.35,NE,48,0.0,0.0,94,0.00,CLR,OVC,0.00,WeatherDisplay:10.37,2013-08-25 05:02:00,
2013-08-25 01:03:00,60.9,59.2,30.35,NE,48,0.0,0.0,94,0.00,CLR,OVC,0.00,WeatherDisplay:10.37,2013-08-25 05:03:00,
2013-08-25 01:05:00,60.9,59.2,30.35,NE,48,0.0,0.0,94,0.00,CLR,OVC,0.00,WeatherDisplay:10.37,2013-08-25 05:05:00,
2013-08-25 01:08:00,61.2,59.8,30.35,NE,48,0.0,0.0,95,0.00,CLR,OVC,0.00,WeatherDisplay:10.37,2013-08-25 05:08:00,
2013-08-25 01:09:00,61.2,59.5,30.35,NE,48,0.0,0.0,94,0.00,CLR,OVC,0.00,WeatherDisplay:10.37,2013-08-25 05:09:00,
2013-08-25 01:10:00,61.2,59.5,30.35,NE,48,0.0,0.0,94,0.00,CLR,OVC,0.00,WeatherDisplay:10.37,2013-08-25 05:10:00,
2013-08-25 01:11:00,61.2,59.5,30.35,NE,48,0.0,0.0,94,0.00,CLR,OVC,0.00,WeatherDisplay:10.37,2013-08-25 05:11:00,
2013-08-25 01:13:00,61.3,59.6,30.35,NE,48,0.0,0.0,94,0.00,CLR,OVC,0.00,WeatherDisplay:10.37,2013-08-25 05:13:00,
2013-08-25 01:15:00,61.3,59.9,30.35,NE,48,0.0,0.0,95,0.00,CLR,OVC,0.00,WeatherDisplay:10.37,2013-08-25 05:15:00,
2013-08-25 01:16:00,61.3,59.6,30.35,NE,48,0.0,0.0,94,0.00,CLR,OVC,0.00,WeatherDisplay:10.37,2013-08-25 05:16:00,
2013-08-25 01:17:00,61.3,59.6,30.35,NE,48,0.0,0.0,94,0.00,CLR,OVC,0.00,WeatherDisplay:10.37,2013-08-25 05:17:00,
2013-08-25 01:20:00,61.3,59.6,30.35,NE,48,0.0,0.0,94,0.00,CLR,OVC,0.00,WeatherDisplay:10.37,2013-08-25 05:20:00,
2013-08-25 01:21:00,61.3,59.6,30.35,NE,48,0.0,0.0,94,0.00,CLR,OVC,0.00,WeatherDisplay:10.37,2013-08-25 05:21:00,
2013-08-25 01:22:00,61.3,59.6,30.35,NE,48,0.8,3.0,94,0.00,CLR,OVC,0.00,WeatherDisplay:10.37,2013-08-25 05:22:00,
2013-08-25 01:26:00,61.5,60.1,30.35,NE,48,2.1,3.5,95,0.00,CLR,OVC,0.00,WeatherDisplay:10.37,2013-08-25 05:26:00,
2013-08-25 01:27:00,61.5,60.1,30.35,NE,48,2.1,3.5,95,0.00,CLR,OVC,0.00,WeatherDisplay:10.37,2013-08-25 05:27:00,
2013-08-25 01:28:00,61.6,60.2,30.35,NE,48,1.9,3.5,95,0.00,CLR,OVC,0.00,WeatherDisplay:10.37,2013-08-25 05:28:00,
2013-08-25 01:30:00,61.8,60.1,30.35,NE,48,1.0,3.0,94,0.00,CLR,OVC,0.00,WeatherDisplay:10.37,2013-08-25 05:30:00,
2013-08-25 01:32:00,62.0,60.3,30.35,NE,48,0.0,1.1,94,0.00,CLR,OVC,0.00,WeatherDisplay:10.37,2013-08-25 05:32:00,
2013-08-25 01:33:00,62.0,60.3,30.35,NE,48,0.0,0.0,94,0.00,CLR,OVC,0.00,WeatherDisplay:10.37,2013-08-25 05:33:00,
2013-08-25 01:34:00,62.0,60.0,30.35,NE,48,0.0,0.0,93,0.00,CLR,OVC,0.00,WeatherDisplay:10.37,2013-08-25 05:34:00,
2013-08-25 01:36:00,62.0,60.0,30.35,NE,48,0.0,0.0,93,0.00,CLR,OVC,0.00,WeatherDisplay:10.37,2013-08-25 05:36:00,
2013-08-25 01:38:00,61.8,59.8,30.35,NE,48,0.0,0.0,93,0.00,CLR,OVC,0.00,WeatherDisplay:10.37,2013-08-25 05:38:00,
2013-08-25 01:39:00,61.8,59.8,30.35,NE,48,0.0,0.0,93,0.00,CLR,OVC,0.00,WeatherDisplay:10.37,2013-08-25 05:39:00,
2013-08-25 01:41:00,61.6,59.6,30.35,NE,48,0.0,0.0,93,0.00,CLR,OVC,0.00,WeatherDisplay:10.37,2013-08-25 05:41:00,
2013-08-25 01:42:00,61.6,59.6,30.35,NE,48,0.0,0.0,93,0.00,CLR,OVC,0.00,WeatherDisplay:10.37,2013-08-25 05:42:00,
2013-08-25 01:44:00,61.5,59.2,30.35,NE,48,0.0,0.0,92,0.00,CLR,OVC,0.00,WeatherDisplay:10.37,2013-08-25 05:44:00,
2013-08-25 01:46:00,61.5,59.5,30.35,NE,48,0.0,0.0,93,0.00,CLR,OVC,0.00,WeatherDisplay:10.37,2013-08-25 05:46:00,
2013-08-25 01:48:00,61.3,59.0,30.35,NE,48,0.0,0.0,92,0.00,CLR,OVC,0.00,WeatherDisplay:10.37,2013-08-25 05:48:00,
2013-08-25 01:49:00,61.3,59.0,30.35,NE,48,0.0,0.0,92,0.00,CLR,OVC,0.00,WeatherDisplay:10.37,2013-08-25 05:49:00,
2013-08-25 01:50:00,61.3,59.0,30.35,NE,48,0.0,0.0,92,0.00,CLR,OVC,0.00,WeatherDisplay:10.37,2013-08-25 05:50:00,
2013-08-25 01:51:00,61.2,58.9,30.35,NE,48,0.0,0.0,92,0.00,CLR,OVC,0.00,WeatherDisplay:10.37,2013-08-25 05:51:00,
2013-08-25 01:54:00,61.2,59.2,30.35,NE,48,0.0,0.0,93,0.00,CLR,OVC,0.00,WeatherDisplay:10.37,2013-08-25 05:54:00,
2013-08-25 01:55:00,61.2,59.2,30.35,NE,48,0.0,0.0,93,0.00,CLR,OVC,0.00,WeatherDisplay:10.37,2013-08-25 05:55:00,
2013-08-25 01:56:00,61.2,59.2,30.35,NE,48,2.0,3.0,93,0.00,CLR,OVC,0.00,WeatherDisplay:10.37,2013-08-25 05:56:00,
2013-08-25 01:58:00,61.3,59.3,30.35,NE,48,1.9,3.5,93,0.00,CLR,OVC,0.00,WeatherDisplay:10.37,2013-08-25 05:58:00,
2013-08-25 01:59:00,61.5,59.5,30.35,NE,48,2.3,3.5,93,0.00,CLR,OVC,0.00,WeatherDisplay:10.37,2013-08-25 05:59:00,
2013-08-25 02:02:00,61.6,59.6,30.35,NE,48,1.8,2.3,93,0.00,CLR,OVC,0.00,WeatherDisplay:10.37,2013-08-25 06:02:00,
2013-08-25 02:03:00,61.8,59.8,30.35,NE,48,1.8,2.3,93,0.00,CLR,OVC,0.00,WeatherDisplay:10.37,2013-08-25 06:03:00,
2013-08-25 02:04:00,61.8,59.8,30.35,NE,48,1.3,2.3,93,0.00,CLR,OVC,0.00,WeatherDisplay:10.37,2013-08-25 06:04:00,
2013-08-25 02:05:00,61.8,59.8,30.35,NE,48,1.1,2.3,93,0.00,CLR,OVC,0.00,WeatherDisplay:10.37,2013-08-25 06:05:00,
2013-08-25 02:08:00,62.0,59.6,30.35,NE,48,0.4,2.3,92,0.00,CLR,OVC,0.00,WeatherDisplay:10.37,2013-08-25 06:08:00,
2013-08-25 02:09:00,62.0,59.6,30.35,NE,48,0.0,0.0,92,0.00,CLR,OVC,0.00,WeatherDisplay:10.37,2013-08-25 06:09:00,
2013-08-25 02:10:00,62.0,59.6,30.35,NE,48,0.0,0.0,92,0.00,CLR,OVC,0.00,WeatherDisplay:10.37,2013-08-25 06:10:00,
2013-08-25 02:11:00,62.0,59.6,30.35,NE,48,0.0,0.0,92,0.00,CLR,OVC,0.00,WeatherDisplay:10.37,2013-08-25 06:11:00,
2013-08-25 02:13:00,61.8,59.5,30.35,NE,48,0.0,0.0,92,0.00,CLR,OVC,0.00,WeatherDisplay:10.37,2013-08-25 06:13:00,
2013-08-25 02:14:00,61.8,59.5,30.35,NE,48,0.0,0.0,92,0.00,CLR,OVC,0.00,WeatherDisplay:10.37,2013-08-25 06:14:00,
2013-08-25 02:15:00,61.8,59.5,30.35,NE,48,0.0,0.0,92,0.00,CLR,OVC,0.00,WeatherDisplay:10.37,2013-08-25 06:15:00,
2013-08-25 02:16:00,61.6,59.3,30.35,NE,48,0.0,0.0,92,0.00,CLR,OVC,0.00,WeatherDisplay:10.37,2013-08-25 06:16:00,
2013-08-25 02:19:00,61.5,59.2,30.35,NE,48,0.0,0.0,92,0.00,CLR,OVC,0.00,WeatherDisplay:10.37,2013-08-25 06:19:00,
2013-08-25 02:20:00,61.3,59.0,30.35,NE,48,0.0,0.0,92,0.00,CLR,OVC,0.00,WeatherDisplay:10.37,2013-08-25 06:20:00,
2013-08-25 02:21:00,61.3,59.0,30.35,NE,48,0.0,0.0,92,0.00,CLR,OVC,0.00,WeatherDisplay:10.37,2013-08-25 06:21:00,
2013-08-25 02:25:00,61.2,58.9,30.35,NE,48,0.0,0.0,92,0.00,CLR,OVC,0.00,WeatherDisplay:10.37,2013-08-25 06:25:00,
2013-08-25 02:26:00,61.2,58.9,30.35,NE,48,0.0,0.0,92,0.00,CLR,OVC,0.00,WeatherDisplay:10.37,2013-08-25 06:26:00,
2013-08-25 02:27:00,61.2,58.9,30.35,NE,48,0.0,0.0,92,0.00,CLR,OVC,0.00,WeatherDisplay:10.37,2013-08-25 06:27:00,
2013-08-25 02:31:00,61.2,58.9,30.35,NE,48,0.0,0.0,92,0.00,CLR,OVC,0.00,WeatherDisplay:10.37,2013-08-25 06:31:00,
2013-08-25 02:32:00,61.2,58.9,30.35,NE,48,0.0,0.0,92,0.00,CLR,OVC,0.00,WeatherDisplay:10.37,2013-08-25 06:32:00,
2013-08-25 02:35:00,61.0,58.7,30.35,NE,48,0.0,0.0,92,0.00,CLR,OVC,0.00,WeatherDisplay:10.37,2013-08-25 06:35:00,
2013-08-25 02:37:00,60.9,58.6,30.35,NE,48,0.0,0.0,92,0.00,CLR,OVC,0.00,WeatherDisplay:10.37,2013-08-25 06:37:00,
2013-08-25 02:38:00,60.9,58.6,30.35,NE,48,0.0,0.0,92,0.00,CLR,OVC,0.00,WeatherDisplay:10.37,2013-08-25 06:38:00,
2013-08-25 02:40:00,60.7,58.7,30.35,NE,48,0.0,0.0,93,0.00,CLR,OVC,0.00,WeatherDisplay:10.37,2013-08-25 06:40:00,
2013-08-25 02:42:00,60.7,58.7,30.35,NE,48,0.0,0.0,93,0.00,CLR,OVC,0.00,WeatherDisplay:10.37,2013-08-25 06:42:00,
2013-08-25 02:43:00,60.5,58.5,30.35,NE,48,0.0,0.0,93,0.00,CLR,OVC,0.00,WeatherDisplay:10.37,2013-08-25 06:43:00,
2013-08-25 02:44:00,60.7,58.7,30.35,NE,48,0.0,0.0,93,0.00,CLR,OVC,0.00,WeatherDisplay:10.37,2013-08-25 06:44:00,
2013-08-25 02:45:00,60.7,59.0,30.35,NE,48,0.0,0.0,94,0.00,CLR,OVC,0.00,WeatherDisplay:10.37,2013-08-25 06:45:00,
2013-08-25 02:48:00,60.9,59.2,30.35,NE,48,0.0,0.0,94,0.00,CLR,OVC,0.00,WeatherDisplay:10.37,2013-08-25 06:48:00,
2013-08-25 02:50:00,61.0,59.3,30.35,NE,48,0.0,0.0,94,0.00,CLR,OVC,0.00,WeatherDisplay:10.37,2013-08-25 06:50:00,
2013-08-25 02:51:00,60.9,58.9,30.35,NE,48,0.0,0.0,93,0.00,CLR,OVC,0.00,WeatherDisplay:10.37,2013-08-25 06:51:00,
2013-08-25 02:52:00,60.9,58.9,30.35,NE,48,0.0,0.0,93,0.00,CLR,OVC,0.00,WeatherDisplay:10.37,2013-08-25 06:52:00,
2013-08-25 02:53:00,60.9,58.9,30.35,NE,48,0.0,0.0,93,0.00,CLR,OVC,0.00,WeatherDisplay:10.37,2013-08-25 06:53:00,
2013-08-25 02:55:00,60.9,59.2,30.35,NE,48,0.0,0.0,94,0.00,CLR,OVC,0.00,WeatherDisplay:10.37,2013-08-25 06:55:00,
2013-08-25 02:56:00,60.9,59.2,30.35,NE,48,0.0,0.0,94,0.00,CLR,OVC,0.00,WeatherDisplay:10.37,2013-08-25 06:56:00,
2013-08-25 02:58:00,60.9,58.9,30.35,NE,48,0.0,0.0,93,0.00,CLR,OVC,0.00,WeatherDisplay:10.37,2013-08-25 06:58:00,
2013-08-25 03:00:00,60.7,58.7,30.35,NE,48,0.0,0.0,93,0.00,CLR,OVC,0.00,WeatherDisplay:10.37,2013-08-25 07:00:00,
2013-08-25 03:02:00,60.7,58.7,30.35,NE,48,0.0,0.0,93,0.00,CLR,OVC,0.00,WeatherDisplay:10.37,2013-08-25 07:02:00,
2013-08-25 03:04:00,60.7,58.7,30.35,NE,48,0.0,0.0,93,0.00,CLR,OVC,0.00,WeatherDisplay:10.37,2013-08-25 07:04:00,
2013-08-25 03:06:00,60.7,58.7,30.35,NE,48,0.0,0.0,93,0.00,CLR,OVC,0.00,WeatherDisplay:10.37,2013-08-25 07:06:00,
2013-08-25 03:07:00,60.7,58.7,30.35,NE,48,0.0,0.0,93,0.00,CLR,OVC,0.00,WeatherDisplay:10.37,2013-08-25 07:07:00,
2013-08-25 03:10:00,60.5,58.5,30.35,NE,48,0.0,0.0,93,0.00,CLR,OVC,0.00,WeatherDisplay:10.37,2013-08-25 07:10:00,
2013-08-25 03:12:00,60.5,58.5,30.35,NE,48,0.0,0.0,93,0.00,CLR,OVC,0.00,WeatherDisplay:10.37,2013-08-25 07:12:00,
2013-08-25 03:13:00,60.4,58.4,30.35,NE,48,0.0,0.0,93,0.00,CLR,OVC,0.00,WeatherDisplay:10.37,2013-08-25 07:13:00,
2013-08-25 03:15:00,60.4,58.4,30.35,NE,48,0.0,0.0,93,0.00,CLR,OVC,0.00,WeatherDisplay:10.37,2013-08-25 07:15:00,
2013-08-25 03:17:00,60.4,58.4,30.35,NE,48,0.0,0.0,93,0.00,CLR,OVC,0.00,WeatherDisplay:10.37,2013-08-25 07:17:00,
2013-08-25 03:18:00,60.4,58.4,30.35,NE,48,0.0,0.0,93,0.00,CLR,OVC,0.00,WeatherDisplay:10.37,2013-08-25 07:18:00,
2013-08-25 03:19:00,60.4,58.4,30.35,NE,48,0.0,0.0,93,0.00,CLR,OVC,0.00,WeatherDisplay:10.37,2013-08-25 07:19:00,
2013-08-25 03:20:00,60.2,58.5,30.35,NE,48,0.0,0.0,94,0.00,CLR,OVC,0.00,WeatherDisplay:10.37,2013-08-25 07:20:00,
2013-08-25 03:23:00,60.2,58.5,30.35,NE,48,0.0,0.0,94,0.00,CLR,OVC,0.00,WeatherDisplay:10.37,2013-08-25 07:23:00,
2013-08-25 03:24:00,60.2,58.5,30.35,NE,48,0.0,0.0,94,0.00,CLR,OVC,0.00,WeatherDisplay:10.37,2013-08-25 07:24:00,
2013-08-25 03:25:00,60.2,58.5,30.35,NE,48,0.0,0.0,94,0.00,CLR,OVC,0.00,WeatherDisplay:10.37,2013-08-25 07:25:00,
2013-08-25 03:27:00,60.2,58.5,30.35,NE,48,0.0,0.0,94,0.00,CLR,OVC,0.00,WeatherDisplay:10.37,2013-08-25 07:27:00,
2013-08-25 03:29:00,60.1,58.4,30.35,NE,48,0.0,0.0,94,0.00,CLR,OVC,0.00,WeatherDisplay:10.37,2013-08-25 07:29:00,
2013-08-25 03:30:00,60.1,58.4,30.34,NE,48,0.0,0.0,94,0.00,CLR,OVC,0.00,WeatherDisplay:10.37,2013-08-25 07:30:00,
2013-08-25 03:31:00,59.9,58.2,30.34,NE,48,0.0,0.0,94,0.00,CLR,OVC,0.00,WeatherDisplay:10.37,2013-08-25 07:31:00,
2013-08-25 03:32:00,59.9,58.2,30.34,NE,48,0.0,0.0,94,0.00,CLR,OVC,0.00,WeatherDisplay:10.37,2013-08-25 07:32:00,
2013-08-25 03:33:00,59.8,58.1,30.34,NE,48,0.0,0.0,94,0.00,CLR,OVC,0.00,WeatherDisplay:10.37,2013-08-25 07:33:00,
2013-08-25 03:34:00,59.8,58.1,30.34,NE,48,0.0,0.0,94,0.00,CLR,OVC,0.00,WeatherDisplay:10.37,2013-08-25 07:34:00,
2013-08-25 03:35:00,59.8,58.1,30.34,NE,48,0.0,0.0,94,0.00,CLR,OVC,0.00,WeatherDisplay:10.37,2013-08-25 07:35:00,
2013-08-25 03:36:00,59.8,58.1,30.34,NE,48,0.0,0.0,94,0.00,CLR,OVC,0.00,WeatherDisplay:10.37,2013-08-25 07:36:00,
2013-08-25 03:37:00,59.6,57.9,30.34,NE,48,0.0,0.0,94,0.00,CLR,OVC,0.00,WeatherDisplay:10.37,2013-08-25 07:37:00,
2013-08-25 03:39:00,59.6,57.9,30.34,NE,48,0.0,0.0,94,0.00,CLR,OVC,0.00,WeatherDisplay:10.37,2013-08-25 07:39:00,
2013-08-25 03:40:00,59.6,57.9,30.34,NE,48,0.0,0.0,94,0.00,CLR,OVC,0.00,WeatherDisplay:10.37,2013-08-25 07:40:00,
2013-08-25 03:41:00,59.6,57.9,30.34,NE,48,0.0,0.0,94,0.00,CLR,OVC,0.00,WeatherDisplay:10.37,2013-08-25 07:41:00,
2013-08-25 03:42:00,59.6,57.9,30.34,NE,48,0.0,0.0,94,0.00,CLR,OVC,0.00,WeatherDisplay:10.37,2013-08-25 07:42:00,
2013-08-25 03:43:00,59.6,57.9,30.34,NE,48,0.0,0.0,94,0.00,CLR,OVC,0.00,WeatherDisplay:10.37,2013-08-25 07:43:00,
2013-08-25 03:44:00,59.6,58.2,30.34,NE,48,0.0,0.0,95,0.00,CLR,OVC,0.00,WeatherDisplay:10.37,2013-08-25 07:44:00,
2013-08-25 03:46:00,59.6,58.2,30.34,NE,48,0.0,0.0,95,0.00,CLR,OVC,0.00,WeatherDisplay:10.37,2013-08-25 07:46:00,
2013-08-25 03:48:00,59.6,58.2,30.34,NE,48,0.0,0.0,95,0.00,CLR,OVC,0.00,WeatherDisplay:10.37,2013-08-25 07:48:00,
2013-08-25 03:49:00,59.6,58.2,30.34,NE,48,0.0,0.0,95,0.00,CLR,OVC,0.00,WeatherDisplay:10.37,2013-08-25 07:49:00,
2013-08-25 03:51:00,59.5,58.1,30.34,NE,48,0.0,0.0,95,0.00,CLR,OVC,0.00,WeatherDisplay:10.37,2013-08-25 07:51:00,
2013-08-25 03:52:00,59.5,58.1,30.34,NE,48,0.0,0.0,95,0.00,CLR,OVC,0.00,WeatherDisplay:10.37,2013-08-25 07:52:00,
2013-08-25 03:53:00,59.3,57.9,30.34,NE,48,0.0,0.0,95,0.00,CLR,OVC,0.00,WeatherDisplay:10.37,2013-08-25 07:53:00,
2013-08-25 03:54:00,59.3,57.9,30.34,NE,48,0.0,0.0,95,0.00,CLR,OVC,0.00,WeatherDisplay:10.37,2013-08-25 07:54:00,
2013-08-25 03:57:00,59.2,57.8,30.34,NE,48,0.0,0.0,95,0.00,CLR,OVC,0.00,WeatherDisplay:10.37,2013-08-25 07:57:00,
2013-08-25 03:59:00,59.0,57.6,30.34,NE,48,0.0,0.0,95,0.00,CLR,OVC,0.00,WeatherDisplay:10.37,2013-08-25 07:59:00,
2013-08-25 04:00:00,59.0,57.6,30.34,NE,48,0.0,0.0,95,0.00,CLR,OVC,0.00,WeatherDisplay:10.37,2013-08-25 08:00:00,
2013-08-25 04:03:00,59.0,57.9,30.35,NE,48,0.0,0.0,96,0.00,CLR,OVC,0.00,WeatherDisplay:10.37,2013-08-25 08:03:00,
2013-08-25 04:05:00,59.2,58.1,30.35,NE,48,0.0,0.0,96,0.00,CLR,OVC,0.00,WeatherDisplay:10.37,2013-08-25 08:05:00,
2013-08-25 04:07:00,59.2,58.1,30.35,NE,48,0.0,0.0,96,0.00,CLR,OVC,0.00,WeatherDisplay:10.37,2013-08-25 08:07:00,
2013-08-25 04:09:00,59.3,58.2,30.35,NE,48,0.0,0.0,96,0.00,CLR,OVC,0.00,WeatherDisplay:10.37,2013-08-25 08:09:00,
2013-08-25 04:10:00,59.3,58.2,30.35,NE,48,0.0,0.0,96,0.00,CLR,OVC,0.00,WeatherDisplay:10.37,2013-08-25 08:10:00,
2013-08-25 04:11:00,59.3,58.2,30.35,NE,48,0.0,0.0,96,0.00,CLR,OVC,0.00,WeatherDisplay:10.37,2013-08-25 08:11:00,
2013-08-25 04:12:00,59.3,58.2,30.35,NE,48,0.0,0.0,96,0.00,CLR,OVC,0.00,WeatherDisplay:10.37,2013-08-25 08:12:00,
2013-08-25 04:13:00,59.3,58.2,30.35,NE,48,0.0,0.0,96,0.00,CLR,OVC,0.00,WeatherDisplay:10.37,2013-08-25 08:13:00,
2013-08-25 04:14:00,59.5,58.4,30.35,NE,48,0.0,0.0,96,0.00,CLR,OVC,0.00,WeatherDisplay:10.37,2013-08-25 08:14:00,
2013-08-25 04:16:00,59.3,58.2,30.35,NE,48,0.0,0.0,96,0.00,CLR,OVC,0.00,WeatherDisplay:10.37,2013-08-25 08:16:00,
2013-08-25 04:18:00,59.3,58.2,30.35,NE,48,0.0,0.0,96,0.00,CLR,OVC,0.00,WeatherDisplay:10.37,2013-08-25 08:18:00,
2013-08-25 04:20:00,59.3,58.2,30.35,NE,48,0.0,0.0,96,0.00,CLR,OVC,0.00,WeatherDisplay:10.37,2013-08-25 08:20:00,
2013-08-25 04:23:00,59.2,58.1,30.35,NE,48,0.0,0.0,96,0.00,CLR,OVC,0.00,WeatherDisplay:10.37,2013-08-25 08:23:00,
2013-08-25 04:24:00,59.0,57.9,30.35,NE,48,0.0,0.0,96,0.00,CLR,OVC,0.00,WeatherDisplay:10.37,2013-08-25 08:24:00,
2013-08-25 04:25:00,59.0,57.9,30.35,NE,48,0.0,0.0,96,0.00,CLR,OVC,0.00,WeatherDisplay:10.37,2013-08-25 08:25:00,
2013-08-25 04:26:00,59.0,57.9,30.35,NE,48,0.0,0.0,96,0.00,CLR,OVC,0.00,WeatherDisplay:10.37,2013-08-25 08:26:00,
2013-08-25 04:27:00,59.0,57.9,30.35,NE,48,0.0,0.0,96,0.00,CLR,OVC,0.00,WeatherDisplay:10.37,2013-08-25 08:27:00,
2013-08-25 04:28:00,59.0,57.9,30.35,NE,48,0.0,0.0,96,0.00,CLR,OVC,0.00,WeatherDisplay:10.37,2013-08-25 08:28:00,
2013-08-25 04:30:00,59.0,57.9,30.35,NE,48,0.0,0.0,96,0.00,CLR,OVC,0.00,WeatherDisplay:10.37,2013-08-25 08:30:00,
2013-08-25 04:33:00,58.9,57.8,30.35,NE,48,0.0,0.0,96,0.00,CLR,OVC,0.00,WeatherDisplay:10.37,2013-08-25 08:33:00,
2013-08-25 04:35:00,58.9,57.8,30.35,NE,48,0.0,0.0,96,0.00,CLR,OVC,0.00,WeatherDisplay:10.37,2013-08-25 08:35:00,
2013-08-25 04:36:00,58.7,57.6,30.35,NE,48,0.0,0.0,96,0.00,CLR,OVC,0.00,WeatherDisplay:10.37,2013-08-25 08:36:00,
2013-08-25 04:38:00,58.7,57.6,30.35,NE,48,0.0,0.0,96,0.00,CLR,OVC,0.00,WeatherDisplay:10.37,2013-08-25 08:38:00,
2013-08-25 04:40:00,58.7,57.6,30.35,NE,48,0.0,0.0,96,0.00,CLR,OVC,0.00,WeatherDisplay:10.37,2013-08-25 08:40:00,
2013-08-25 04:41:00,58.7,57.6,30.35,NE,48,0.0,0.0,96,0.00,CLR,OVC,0.00,WeatherDisplay:10.37,2013-08-25 08:41:00,
2013-08-25 04:43:00,58.7,57.6,30.35,NE,48,0.0,0.0,96,0.00,CLR,OVC,0.00,WeatherDisplay:10.37,2013-08-25 08:43:00,
2013-08-25 04:44:00,58.7,57.6,30.35,NE,48,0.0,0.0,96,0.00,CLR,OVC,0.00,WeatherDisplay:10.37,2013-08-25 08:44:00,
2013-08-25 04:46:00,58.7,57.6,30.35,NE,48,0.0,0.0,96,0.00,CLR,OVC,0.00,WeatherDisplay:10.37,2013-08-25 08:46:00,
2013-08-25 04:47:00,58.7,57.6,30.35,NE,48,0.0,0.0,96,0.00,CLR,OVC,0.00,WeatherDisplay:10.37,2013-08-25 08:47:00,
2013-08-25 04:49:00,58.6,57.5,30.35,NE,48,0.0,0.0,96,0.00,CLR,OVC,0.00,WeatherDisplay:10.37,2013-08-25 08:49:00,
2013-08-25 04:51:00,58.6,57.5,30.35,NE,48,0.0,0.0,96,0.00,CLR,OVC,0.00,WeatherDisplay:10.37,2013-08-25 08:51:00,
2013-08-25 04:52:00,58.4,57.3,30.35,NE,48,0.0,0.0,96,0.00,CLR,OVC,0.00,WeatherDisplay:10.37,2013-08-25 08:52:00,
2013-08-25 04:53:00,58.4,57.3,30.35,NE,48,0.0,0.0,96,0.00,CLR,OVC,0.00,WeatherDisplay:10.37,2013-08-25 08:53:00,
2013-08-25 04:54:00,58.4,57.3,30.35,NE,48,0.0,0.0,96,0.00,CLR,OVC,0.00,WeatherDisplay:10.37,2013-08-25 08:54:00,
2013-08-25 04:57:00,58.4,57.3,30.35,NE,48,0.0,0.0,96,0.00,CLR,OVC,0.00,WeatherDisplay:10.37,2013-08-25 08:57:00,
2013-08-25 04:58:00,58.4,57.3,30.35,NE,48,0.0,0.0,96,0.00,CLR,OVC,0.00,WeatherDisplay:10.37,2013-08-25 08:58:00,
2013-08-25 04:59:00,58.4,57.3,30.35,NE,48,0.0,0.0,96,0.00,CLR,OVC,0.00,WeatherDisplay:10.37,2013-08-25 08:59:00,
2013-08-25 05:02:00,58.4,57.6,30.35,NE,48,0.0,0.0,97,0.00,CLR,OVC,0.00,WeatherDisplay:10.37,2013-08-25 09:02:00,
2013-08-25 05:03:00,58.4,57.6,30.35,NE,48,0.0,0.0,97,0.00,CLR,OVC,0.00,WeatherDisplay:10.37,2013-08-25 09:03:00,
2013-08-25 05:04:00,58.4,57.6,30.35,NE,48,0.0,0.0,97,0.00,CLR,OVC,0.00,WeatherDisplay:10.37,2013-08-25 09:04:00,
2013-08-25 05:07:00,58.3,57.2,30.35,NE,48,0.0,0.0,96,0.00,CLR,OVC,0.00,WeatherDisplay:10.37,2013-08-25 09:07:00,
2013-08-25 05:09:00,58.3,57.2,30.35,NE,48,0.0,0.0,96,0.00,CLR,OVC,0.00,WeatherDisplay:10.37,2013-08-25 09:09:00,
2013-08-25 05:10:00,58.1,57.0,30.35,NE,48,0.0,0.0,96,0.00,CLR,OVC,0.00,WeatherDisplay:10.37,2013-08-25 09:10:00,
2013-08-25 05:14:00,58.0,57.2,30.36,NE,48,0.0,0.0,97,0.00,CLR,OVC,0.00,WeatherDisplay:10.37,2013-08-25 09:14:00,
2013-08-25 05:15:00,58.0,57.2,30.36,NE,48,0.0,0.0,97,0.00,CLR,OVC,0.00,WeatherDisplay:10.37,2013-08-25 09:15:00,
2013-08-25 05:16:00,58.0,57.2,30.36,NE,48,0.0,1.1,97,0.00,CLR,OVC,0.00,WeatherDisplay:10.37,2013-08-25 09:16:00,
2013-08-25 05:17:00,58.0,57.2,30.36,NE,48,0.0,0.0,97,0.00,CLR,OVC,0.00,WeatherDisplay:10.37,2013-08-25 09:17:00,
2013-08-25 05:19:00,57.8,57.0,30.36,NE,48,0.0,0.0,97,0.00,CLR,OVC,0.00,WeatherDisplay:10.37,2013-08-25 09:19:00,
2013-08-25 05:20:00,57.8,57.0,30.36,NE,48,0.0,0.0,97,0.00,CLR,OVC,0.00,WeatherDisplay:10.37,2013-08-25 09:20:00,
2013-08-25 05:21:00,57.8,57.0,30.36,NE,48,0.0,0.0,97,0.00,CLR,OVC,0.00,WeatherDisplay:10.37,2013-08-25 09:21:00,
2013-08-25 05:22:00,57.8,57.0,30.36,NE,48,0.0,0.0,97,0.00,CLR,OVC,0.00,WeatherDisplay:10.37,2013-08-25 09:22:00,
2013-08-25 05:26:00,58.1,57.3,30.36,NE,48,0.0,0.0,97,0.00,CLR,OVC,0.00,WeatherDisplay:10.37,2013-08-25 09:26:00,
2013-08-25 05:27:00,58.1,57.3,30.36,NE,48,0.0,0.0,97,0.00,CLR,OVC,0.00,WeatherDisplay:10.37,2013-08-25 09:27:00,
2013-08-25 05:28:00,58.1,57.3,30.36,NE,48,0.0,0.0,97,0.00,CLR,OVC,0.00,WeatherDisplay:10.37,2013-08-25 09:28:00,
2013-08-25 05:29:00,58.1,57.3,30.36,NE,48,0.0,0.0,97,0.00,CLR,OVC,0.00,WeatherDisplay:10.37,2013-08-25 09:29:00,
2013-08-25 05:32:00,58.0,57.2,30.36,NE,48,0.0,0.0,97,0.00,CLR,OVC,0.00,WeatherDisplay:10.37,2013-08-25 09:32:00,
2013-08-25 05:33:00,58.0,57.2,30.36,NE,48,0.0,0.0,97,0.00,CLR,OVC,0.00,WeatherDisplay:10.37,2013-08-25 09:33:00,
2013-08-25 05:34:00,58.0,57.2,30.36,NE,48,0.2,3.5,97,0.00,CLR,OVC,0.00,WeatherDisplay:10.37,2013-08-25 09:34:00,
2013-08-25 05:37:00,58.0,57.2,30.36,NE,48,2.5,3.5,97,0.00,CLR,OVC,0.00,WeatherDisplay:10.37,2013-08-25 09:37:00,
2013-08-25 05:38:00,58.0,57.2,30.36,NE,48,2.0,3.5,97,0.00,CLR,OVC,0.00,WeatherDisplay:10.37,2013-08-25 09:38:00,
2013-08-25 05:39:00,58.0,57.2,30.36,NE,48,1.1,2.3,97,0.00,CLR,OVC,0.00,WeatherDisplay:10.37,2013-08-25 09:39:00,
2013-08-25 05:42:00,57.8,57.0,30.36,NE,48,1.3,2.3,97,0.00,CLR,OVC,0.00,WeatherDisplay:10.37,2013-08-25 09:42:00,
2013-08-25 05:44:00,57.6,56.8,30.36,NE,48,1.8,2.3,97,0.00,CLR,OVC,0.00,WeatherDisplay:10.37,2013-08-25 09:44:00,
2013-08-25 05:45:00,57.6,56.8,30.36,NE,48,1.6,2.3,97,0.00,CLR,OVC,0.00,WeatherDisplay:10.37,2013-08-25 09:45:00,
2013-08-25 05:47:00,57.6,56.8,30.36,NE,48,1.6,2.3,97,0.00,CLR,OVC,0.00,WeatherDisplay:10.37,2013-08-25 09:47:00,
2013-08-25 05:49:00,57.6,56.8,30.36,NE,48,1.7,2.3,97,0.00,CLR,OVC,0.00,WeatherDisplay:10.37,2013-08-25 09:49:00,
2013-08-25 05:50:00,57.5,56.7,30.36,NE,48,1.5,2.3,97,0.00,CLR,OVC,0.00,WeatherDisplay:10.37,2013-08-25 09:50:00,
2013-08-25 05:51:00,57.5,56.7,30.36,NE,48,1.6,2.3,97,0.00,CLR,OVC,0.00,WeatherDisplay:10.37,2013-08-25 09:51:00,
2013-08-25 05:52:00,57.5,56.7,30.36,NE,48,1.7,2.3,97,0.00,CLR,OVC,0.00,WeatherDisplay:10.37,2013-08-25 09:52:00,
2013-08-25 05:55:00,57.3,56.5,30.36,NE,48,2.0,2.3,97,0.00,CLR,OVC,0.00,WeatherDisplay:10.37,2013-08-25 09:55:00,
2013-08-25 05:56:00,57.2,56.4,30.36,NE,48,1.2,2.3,97,0.00,CLR,OVC,0.00,WeatherDisplay:10.37,2013-08-25 09:56:00,
2013-08-25 05:57:00,57.2,56.4,30.36,NE,48,1.3,2.3,97,0.00,CLR,OVC,0.00,WeatherDisplay:10.37,2013-08-25 09:57:00,
2013-08-25 05:59:00,57.2,56.4,30.36,NE,48,1.4,2.3,97,0.00,CLR,OVC,0.00,WeatherDisplay:10.37,2013-08-25 09:59:00,
2013-08-25 06:00:00,57.0,56.2,30.36,NE,48,1.5,2.3,97,0.00,CLR,OVC,0.00,WeatherDisplay:10.37,2013-08-25 10:00:00,
2013-08-25 06:02:00,57.0,56.2,30.36,NE,48,1.6,2.3,97,0.00,CLR,OVC,0.00,WeatherDisplay:10.37,2013-08-25 10:02:00,
2013-08-25 06:04:00,57.0,56.2,30.36,NE,48,1.3,2.3,97,0.00,CLR,OVC,0.00,WeatherDisplay:10.37,2013-08-25 10:04:00,
2013-08-25 06:05:00,57.0,56.4,30.36,NE,48,0.5,2.3,98,0.00,CLR,OVC,0.00,WeatherDisplay:10.37,2013-08-25 10:05:00,
2013-08-25 06:06:00,57.2,56.6,30.36,NE,48,0.0,0.0,98,0.00,CLR,OVC,0.00,WeatherDisplay:10.37,2013-08-25 10:06:00,
2013-08-25 06:08:00,57.3,56.7,30.36,NE,48,0.0,0.0,98,0.00,CLR,OVC,0.00,WeatherDisplay:10.37,2013-08-25 10:08:00,
2013-08-25 06:11:00,57.5,56.9,30.36,NE,48,0.0,0.0,98,0.00,CLR,OVC,0.00,WeatherDisplay:10.37,2013-08-25 10:11:00,
2013-08-25 06:12:00,57.5,56.9,30.36,NE,48,0.0,0.0,98,0.00,CLR,OVC,0.00,WeatherDisplay:10.37,2013-08-25 10:12:00,
2013-08-25 06:13:00,57.3,56.7,30.36,NE,48,0.0,0.0,98,0.00,CLR,OVC,0.00,WeatherDisplay:10.37,2013-08-25 10:13:00,
2013-08-25 06:16:00,57.5,56.9,30.36,NE,48,0.0,0.0,98,0.00,CLR,OVC,0.00,WeatherDisplay:10.37,2013-08-25 10:16:00,
2013-08-25 06:17:00,57.5,56.9,30.36,NE,48,0.0,0.0,98,0.00,CLR,OVC,0.00,WeatherDisplay:10.37,2013-08-25 10:17:00,
2013-08-25 06:18:00,57.5,56.9,30.36,NE,48,0.0,0.0,98,0.00,CLR,OVC,0.00,WeatherDisplay:10.37,2013-08-25 10:18:00,
2013-08-25 06:19:00,57.5,56.9,30.36,NE,48,0.0,0.0,98,0.00,CLR,OVC,0.00,WeatherDisplay:10.37,2013-08-25 10:19:00,
2013-08-25 06:23:00,57.5,56.9,30.36,NE,48,0.0,0.0,98,0.00,CLR,OVC,0.00,WeatherDisplay:10.37,2013-08-25 10:23:00,
2013-08-25 06:24:00,57.5,56.9,30.36,NE,48,0.0,0.0,98,0.00,CLR,OVC,0.00,WeatherDisplay:10.37,2013-08-25 10:24:00,
2013-08-25 06:25:00,57.5,56.9,30.36,NE,48,0.0,0.0,98,0.00,CLR,OVC,0.00,WeatherDisplay:10.37,2013-08-25 10:25:00,
2013-08-25 06:29:00,58.0,57.4,30.36,NE,48,0.0,0.0,98,0.00,CLR,OVC,0.00,WeatherDisplay:10.37,2013-08-25 10:29:00,
2013-08-25 06:30:00,58.0,57.7,30.36,NE,48,0.0,0.0,99,0.00,CLR,OVC,0.00,WeatherDisplay:10.37,2013-08-25 10:30:00,
2013-08-25 06:31:00,58.0,57.4,30.38,NE,48,0.0,0.0,98,0.00,CLR,OVC,0.00,WeatherDisplay:10.37,2013-08-25 10:31:00,
2013-08-25 06:32:00,58.0,57.4,30.38,NE,48,0.0,0.0,98,0.00,CLR,OVC,0.00,WeatherDisplay:10.37,2013-08-25 10:32:00,
2013-08-25 06:35:00,57.8,57.2,30.38,NE,48,0.0,0.0,98,0.00,CLR,OVC,0.00,WeatherDisplay:10.37,2013-08-25 10:35:00,
2013-08-25 06:36:00,57.6,57.0,30.38,NE,48,0.0,0.0,98,0.00,CLR,OVC,0.00,WeatherDisplay:10.37,2013-08-25 10:36:00,
2013-08-25 06:37:00,57.6,57.0,30.38,NE,48,0.0,0.0,98,0.00,CLR,OVC,0.00,WeatherDisplay:10.37,2013-08-25 10:37:00,
2013-08-25 06:38:00,57.6,57.0,30.38,NE,48,0.0,0.0,98,0.00,CLR,OVC,0.00,WeatherDisplay:10.37,2013-08-25 10:38:00,
2013-08-25 06:41:00,57.8,57.2,30.38,NE,48,0.0,0.0,98,0.00,CLR,OVC,0.00,WeatherDisplay:10.37,2013-08-25 10:41:00,
2013-08-25 06:44:00,58.0,57.4,30.38,NE,48,0.0,0.0,98,0.00,CLR,OVC,0.00,WeatherDisplay:10.37,2013-08-25 10:44:00,
2013-08-25 06:46:00,57.8,57.2,30.38,NE,48,0.0,0.0,98,0.00,CLR,OVC,0.00,WeatherDisplay:10.37,2013-08-25 10:46:00,
2013-08-25 06:47:00,57.8,57.2,30.38,NE,48,0.0,0.0,98,0.00,CLR,OVC,0.00,WeatherDisplay:10.37,2013-08-25 10:47:00,
2013-08-25 06:49:00,57.6,57.0,30.38,NE,48,2.4,3.5,98,0.00,CLR,OVC,0.00,WeatherDisplay:10.37,2013-08-25 10:49:00,
2013-08-25 06:50:00,57.6,57.0,30.38,NE,48,2.8,3.5,98,0.00,CLR,OVC,0.00,WeatherDisplay:10.37,2013-08-25 10:50:00,
2013-08-25 06:51:00,57.8,57.2,30.38,NE,48,2.2,3.5,98,0.00,CLR,OVC,0.00,WeatherDisplay:10.37,2013-08-25 10:51:00,
2013-08-25 06:54:00,58.0,57.7,30.38,NE,48,3.9,3.9,99,0.00,CLR,OVC,0.00,WeatherDisplay:10.37,2013-08-25 10:54:00,
2013-08-25 06:55:00,58.0,57.7,30.38,NE,48,3.6,4.0,99,0.00,CLR,OVC,0.00,WeatherDisplay:10.37,2013-08-25 10:55:00,
2013-08-25 06:56:00,58.1,57.8,30.38,NE,48,3.7,5.0,99,0.00,CLR,OVC,0.00,WeatherDisplay:10.37,2013-08-25 10:56:00,
2013-08-25 06:58:00,58.3,58.0,30.38,NE,48,3.8,4.0,99,0.00,CLR,OVC,0.00,WeatherDisplay:10.37,2013-08-25 10:58:00,
2013-08-25 07:00:00,58.3,58.0,30.40,NE,48,3.6,3.6,99,0.00,CLR,OVC,0.00,WeatherDisplay:10.37,2013-08-25 11:00:00,
2013-08-25 07:01:00,58.4,58.1,30.40,NE,48,3.3,3.5,99,0.00,CLR,OVC,0.00,WeatherDisplay:10.37,2013-08-25 11:01:00,
2013-08-25 07:02:00,58.6,58.3,30.40,NE,48,3.3,3.5,99,0.00,FEW,OVC,0.00,WeatherDisplay:10.37,2013-08-25 11:02:00,
2013-08-25 07:05:00,58.6,58.3,30.40,NE,48,3.4,4.0,99,0.00,FEW,OVC,0.00,WeatherDisplay:10.37,2013-08-25 11:05:00,
2013-08-25 07:07:00,58.6,58.3,30.40,NE,48,3.4,4.0,99,0.00,FEW,OVC,0.00,WeatherDisplay:10.37,2013-08-25 11:07:00,
2013-08-25 07:08:00,58.7,58.4,30.40,NE,48,4.0,4.6,99,0.00,FEW,OVC,0.00,WeatherDisplay:10.37,2013-08-25 11:08:00,
2013-08-25 07:10:00,58.7,58.4,30.40,NE,48,3.6,4.0,99,0.00,FEW,OVC,0.00,WeatherDisplay:10.37,2013-08-25 11:10:00,
2013-08-25 07:11:00,58.7,58.4,30.40,NE,48,3.5,4.6,99,0.00,FEW,OVC,0.00,WeatherDisplay:10.37,2013-08-25 11:11:00,
2013-08-25 07:13:00,58.9,58.6,30.40,NE,48,3.1,3.5,99,0.00,FEW,OVC,0.00,WeatherDisplay:10.37,2013-08-25 11:13:00,
2013-08-25 07:14:00,58.9,58.6,30.40,NE,48,2.8,4.0,99,0.00,FEW,OVC,0.00,WeatherDisplay:10.37,2013-08-25 11:14:00,
2013-08-25 07:15:00,58.9,58.6,30.40,NE,48,2.0,5.0,99,0.00,FEW,OVC,0.00,WeatherDisplay:10.37,2013-08-25 11:15:00,
2013-08-25 07:16:00,59.0,58.7,30.41,NE,48,3.0,3.5,99,0.00,FEW,OVC,0.00,WeatherDisplay:10.37,2013-08-25 11:16:00,
2013-08-25 07:18:00,59.0,58.7,30.41,NE,48,2.3,3.5,99,0.00,FEW,OVC,0.00,WeatherDisplay:10.37,2013-08-25 11:18:00,
2013-08-25 07:20:00,59.2,58.9,30.41,NE,48,1.3,3.5,99,0.00,FEW,OVC,0.00,WeatherDisplay:10.37,2013-08-25 11:20:00,
2013-08-25 07:21:00,59.2,58.9,30.41,NE,48,0.3,3.0,99,0.00,FEW,OVC,0.00,WeatherDisplay:10.37,2013-08-25 11:21:00,
2013-08-25 07:23:00,59.3,59.0,30.41,NE,48,2.6,4.0,99,0.00,FEW,OVC,0.00,WeatherDisplay:10.37,2013-08-25 11:23:00,
2013-08-25 07:25:00,59.3,59.0,30.41,NE,48,2.6,3.5,99,0.00,FEW,OVC,0.00,WeatherDisplay:10.37,2013-08-25 11:25:00,
2013-08-25 07:26:00,59.3,59.0,30.41,NE,48,2.2,3.5,99,0.00,FEW,OVC,0.00,WeatherDisplay:10.37,2013-08-25 11:26:00,
2013-08-25 07:29:00,59.3,59.0,30.41,NE,48,3.0,4.0,99,0.00,FEW,OVC,0.00,WeatherDisplay:10.37,2013-08-25 11:29:00,
2013-08-25 07:30:00,59.5,59.2,30.41,NE,48,3.4,3.5,99,0.00,FEW,OVC,0.00,WeatherDisplay:10.37,2013-08-25 11:30:00,
2013-08-25 07:31:00,59.5,59.2,30.42,NE,48,2.9,4.6,99,0.00,FEW,OVC,0.00,WeatherDisplay:10.37,2013-08-25 11:31:00,
2013-08-25 07:33:00,59.6,59.3,30.42,NE,48,0.0,0.0,99,0.00,FEW,OVC,0.00,WeatherDisplay:10.37,2013-08-25 11:33:00,
2013-08-25 07:34:00,59.6,59.3,30.42,NE,48,0.0,0.0,99,0.00,FEW,OVC,0.00,WeatherDisplay:10.37,2013-08-25 11:34:00,
2013-08-25 07:35:00,59.6,59.3,30.42,NE,48,0.0,0.0,99,0.00,FEW,OVC,0.00,WeatherDisplay:10.37,2013-08-25 11:35:00,
2013-08-25 07:36:00,59.6,59.3,30.42,NE,48,0.0,4.0,99,0.00,FEW,OVC,0.00,WeatherDisplay:10.37,2013-08-25 11:36:00,
2013-08-25 07:37:00,59.6,59.3,30.42,NE,48,1.4,3.0,99,0.00,FEW,OVC,0.00,WeatherDisplay:10.37,2013-08-25 11:37:00,
2013-08-25 07:38:00,59.6,59.3,30.42,NE,48,2.9,3.5,99,0.00,FEW,OVC,0.00,WeatherDisplay:10.37,2013-08-25 11:38:00,
2013-08-25 07:39:00,59.6,59.3,30.42,NE,48,2.7,3.5,99,0.00,FEW,OVC,0.00,WeatherDisplay:10.37,2013-08-25 11:39:00,
2013-08-25 07:40:00,59.8,59.5,30.42,NE,48,3.3,4.6,99,0.00,FEW,OVC,0.00,WeatherDisplay:10.37,2013-08-25 11:40:00,
2013-08-25 07:41:00,59.8,59.5,30.42,NE,48,3.1,4.6,99,0.00,FEW,OVC,0.00,WeatherDisplay:10.37,2013-08-25 11:41:00,
2013-08-25 07:43:00,59.8,59.5,30.42,NE,48,1.3,3.5,99,0.00,FEW,OVC,0.00,WeatherDisplay:10.37,2013-08-25 11:43:00,
2013-08-25 07:44:00,59.8,59.5,30.42,NE,48,0.0,1.1,99,0.00,FEW,OVC,0.00,WeatherDisplay:10.37,2013-08-25 11:44:00,
2013-08-25 07:45:00,59.9,59.6,30.42,NE,48,0.0,0.0,99,0.00,FEW,OVC,0.00,WeatherDisplay:10.37,2013-08-25 11:45:00,
2013-08-25 07:46:00,59.9,59.6,30.42,NE,48,0.0,0.0,99,0.00,FEW,OVC,0.00,WeatherDisplay:10.37,2013-08-25 11:46:00,
2013-08-25 07:48:00,60.1,59.8,30.42,NE,48,0.0,0.0,99,0.00,FEW,OVC,0.00,WeatherDisplay:10.37,2013-08-25 11:48:00,
2013-08-25 07:49:00,60.1,59.8,30.42,NE,48,2.9,4.0,99,0.00,FEW,OVC,0.00,WeatherDisplay:10.37,2013-08-25 11:49:00,
2013-08-25 07:51:00,60.2,59.9,30.42,NE,48,1.4,3.5,99,0.00,FEW,OVC,0.00,WeatherDisplay:10.37,2013-08-25 11:51:00,
2013-08-25 07:52:00,60.2,59.9,30.42,NE,48,0.0,2.3,99,0.00,FEW,OVC,0.00,WeatherDisplay:10.37,2013-08-25 11:52:00,
2013-08-25 07:54:00,60.4,60.1,30.42,NE,48,0.0,0.0,99,0.00,FEW,OVC,0.00,WeatherDisplay:10.37,2013-08-25 11:54:00,
2013-08-25 07:56:00,60.4,60.1,30.42,NE,48,3.3,4.6,99,0.00,FEW,OVC,0.00,WeatherDisplay:10.37,2013-08-25 11:56:00,
2013-08-25 07:57:00,60.5,59.9,30.42,NE,48,3.4,5.8,98,0.00,FEW,OVC,0.00,WeatherDisplay:10.37,2013-08-25 11:57:00,
2013-08-25 07:58:00,60.5,59.9,30.42,NE,48,2.8,5.0,98,0.00,FEW,OVC,0.00,WeatherDisplay:10.37,2013-08-25 11:58:00,
2013-08-25 07:59:00,60.5,59.9,30.42,NE,48,3.1,4.6,98,0.00,FEW,OVC,0.00,WeatherDisplay:10.37,2013-08-25 11:59:00,
2013-08-25 08:00:00,60.5,59.9,30.42,NE,48,2.2,3.5,98,0.00,FEW,OVC,0.00,WeatherDisplay:10.37,2013-08-25 12:00:00,
2013-08-25 08:03:00,60.9,60.3,30.43,NE,48,0.0,2.3,98,0.00,FEW,OVC,0.00,WeatherDisplay:10.37,2013-08-25 12:03:00,
2013-08-25 08:04:00,60.9,60.3,30.43,NE,48,0.5,0.0,98,0.00,FEW,OVC,0.00,WeatherDisplay:10.37,2013-08-25 12:04:00,
2013-08-25 08:05:00,61.0,60.4,30.43,NE,48,0.1,3.5,98,0.00,FEW,OVC,0.00,WeatherDisplay:10.37,2013-08-25 12:05:00,
2013-08-25 08:07:00,61.0,60.4,30.43,NE,48,0.0,0.0,98,0.00,FEW,OVC,0.00,WeatherDisplay:10.37,2013-08-25 12:07:00,
2013-08-25 08:09:00,61.2,60.6,30.43,NE,48,0.2,2.3,98,0.00,FEW,OVC,0.00,WeatherDisplay:10.37,2013-08-25 12:09:00,
2013-08-25 08:10:00,61.2,60.6,30.43,NE,48,0.0,2.3,98,0.00,FEW,OVC,0.00,WeatherDisplay:10.37,2013-08-25 12:10:00,
2013-08-25 08:14:00,61.5,60.6,30.43,NE,48,3.4,4.6,97,0.00,FEW,OVC,0.00,WeatherDisplay:10.37,2013-08-25 12:14:00,
2013-08-25 08:15:00,61.5,60.6,30.43,NE,48,3.0,4.6,97,0.00,FEW,OVC,0.00,WeatherDisplay:10.37,2013-08-25 12:15:00,
2013-08-25 08:16:00,61.5,60.6,30.43,NE,48,3.0,4.6,97,0.00,FEW,OVC,0.00,WeatherDisplay:10.37,2013-08-25 12:16:00,
2013-08-25 08:17:00,61.6,60.7,30.43,NE,48,0.8,3.5,97,0.00,FEW,OVC,0.00,WeatherDisplay:10.37,2013-08-25 12:17:00,
2013-08-25 08:21:00,62.0,61.1,30.43,NE,48,0.0,0.0,97,0.00,FEW,OVC,0.00,WeatherDisplay:10.37,2013-08-25 12:21:00,
2013-08-25 08:22:00,62.0,61.1,30.43,NE,48,0.0,0.0,97,0.00,FEW,OVC,0.00,WeatherDisplay:10.37,2013-08-25 12:22:00,
2013-08-25 08:23:00,62.1,61.2,30.43,NE,48,0.0,0.0,97,0.00,FEW,OVC,0.00,WeatherDisplay:10.37,2013-08-25 12:23:00,
2013-08-25 08:26:00,62.4,61.5,30.43,NE,48,0.0,0.0,97,0.00,FEW,OVC,0.00,WeatherDisplay:10.37,2013-08-25 12:26:00,
2013-08-25 08:27:00,62.6,61.7,30.43,NE,48,0.0,0.0,97,0.00,FEW,OVC,0.00,WeatherDisplay:10.37,2013-08-25 12:27:00,
2013-08-25 08:28:00,62.6,61.4,30.43,NE,48,0.0,0.0,96,0.00,FEW,OVC,0.00,WeatherDisplay:10.37,2013-08-25 12:28:00,
2013-08-25 08:31:00,62.9,61.7,30.43,NE,48,2.4,3.5,96,0.00,FEW,OVC,0.00,WeatherDisplay:10.37,2013-08-25 12:31:00,
2013-08-25 08:32:00,63.1,61.9,30.43,NE,48,0.0,2.3,96,0.00,FEW,OVC,0.00,WeatherDisplay:10.37,2013-08-25 12:32:00,
2013-08-25 08:33:00,63.1,61.9,30.43,NE,48,0.0,2.3,96,0.00,FEW,OVC,0.00,WeatherDisplay:10.37,2013-08-25 12:33:00,
2013-08-25 08:34:00,63.2,62.0,30.43,NE,48,2.3,3.5,96,0.00,FEW,OVC,0.00,WeatherDisplay:10.37,2013-08-25 12:34:00,
2013-08-25 08:35:00,63.2,62.0,30.43,NE,48,1.7,3.5,96,0.00,FEW,OVC,0.00,WeatherDisplay:10.37,2013-08-25 12:35:00,
2013-08-25 08:37:00,63.5,62.0,30.43,NE,48,0.0,0.0,95,0.00,FEW,OVC,0.00,WeatherDisplay:10.37,2013-08-25 12:37:00,
2013-08-25 08:38:00,63.5,62.0,30.43,NE,48,0.0,0.0,95,0.00,FEW,OVC,0.00,WeatherDisplay:10.37,2013-08-25 12:38:00,
2013-08-25 08:40:00,63.7,62.8,30.43,NE,48,3.1,3.5,97,0.00,FEW,OVC,0.00,WeatherDisplay:10.37,2013-08-25 12:40:00,
2013-08-25 08:41:00,63.7,62.8,30.43,NE,48,2.9,3.5,97,0.00,FEW,OVC,0.00,WeatherDisplay:10.37,2013-08-25 12:41:00,
2013-08-25 08:42:00,63.9,62.4,30.43,NE,48,0.0,2.3,95,0.00,FEW,OVC,0.00,WeatherDisplay:10.37,2013-08-25 12:42:00,
2013-08-25 08:44:00,64.0,62.2,30.43,NE,48,0.0,0.0,94,0.00,FEW,OVC,0.00,WeatherDisplay:10.37,2013-08-25 12:44:00,
2013-08-25 08:45:00,64.0,62.2,30.43,NE,48,0.0,0.0,94,0.00,FEW,OVC,0.00,WeatherDisplay:10.37,2013-08-25 12:45:00,
2013-08-25 08:46:00,64.2,62.4,30.43,NE,48,0.0,0.0,94,0.00,FEW,OVC,0.00,WeatherDisplay:10.37,2013-08-25 12:46:00,
2013-08-25 08:47:00,64.2,62.4,30.43,NE,48,0.0,0.0,94,0.00,FEW,OVC,0.00,WeatherDisplay:10.37,2013-08-25 12:47:00,
2013-08-25 08:50:00,64.5,62.7,30.43,NE,48,0.0,0.0,94,0.00,FEW,OVC,0.00,WeatherDisplay:10.37,2013-08-25 12:50:00,
2013-08-25 08:51:00,64.7,62.6,30.43,NE,48,0.0,0.0,93,0.00,FEW,OVC,0.00,WeatherDisplay:10.37,2013-08-25 12:51:00,
2013-08-25 08:52:00,64.7,62.6,30.43,NE,48,0.0,0.0,93,0.00,FEW,OVC,0.00,WeatherDisplay:10.37,2013-08-25 12:52:00,
2013-08-25 08:53:00,64.8,62.7,30.43,NE,48,4.2,6.0,93,0.00,FEW,OVC,0.00,WeatherDisplay:10.37,2013-08-25 12:53:00,
2013-08-25 08:56:00,65.0,62.6,30.43,NE,48,2.9,4.6,92,0.00,FEW,OVC,0.00,WeatherDisplay:10.37,2013-08-25 12:56:00,
2013-08-25 08:57:00,65.2,62.8,30.43,NE,48,0.4,3.5,92,0.00,FEW,OVC,0.00,WeatherDisplay:10.37,2013-08-25 12:57:00,
2013-08-25 08:58:00,65.3,62.9,30.43,NE,48,0.0,2.3,92,0.00,FEW,OVC,0.00,WeatherDisplay:10.37,2013-08-25 12:58:00,
2013-08-25 09:00:00,65.5,62.8,30.43,NE,48,2.3,4.0,91,0.00,FEW,OVC,0.00,WeatherDisplay:10.37,2013-08-25 13:00:00,
2013-08-25 09:01:00,65.5,62.8,30.43,NE,48,3.1,4.0,91,0.00,FEW,OVC,0.00,WeatherDisplay:10.37,2013-08-25 13:01:00,
2013-08-25 09:04:00,65.6,62.6,30.44,NE,48,3.1,4.6,90,0.00,FEW,OVC,0.00,WeatherDisplay:10.37,2013-08-25 13:04:00,
2013-08-25 09:05:00,65.6,62.6,30.44,NE,48,1.2,4.6,90,0.00,FEW,OVC,0.00,WeatherDisplay:10.37,2013-08-25 13:05:00,
2013-08-25 09:07:00,65.8,62.5,30.44,NE,48,0.2,0.0,89,0.00,FEW,OVC,0.00,WeatherDisplay:10.37,2013-08-25 13:07:00,
2013-08-25 09:08:00,66.0,63.0,30.44,NE,48,0.0,2.3,90,0.00,FEW,OVC,0.00,WeatherDisplay:10.37,2013-08-25 13:08:00,
2013-08-25 09:10:00,66.1,62.8,30.44,NE,48,3.8,5.0,89,0.00,FEW,OVC,0.00,WeatherDisplay:10.37,2013-08-25 13:10:00,
2013-08-25 09:11:00,66.1,62.4,30.44,NE,48,3.6,4.6,88,0.00,FEW,OVC,0.00,WeatherDisplay:10.37,2013-08-25 13:11:00,
2013-08-25 09:12:00,66.1,62.4,30.44,NE,48,2.6,4.6,88,0.00,FEW,OVC,0.00,WeatherDisplay:10.37,2013-08-25 13:12:00,
2013-08-25 09:13:00,66.3,62.6,30.44,NE,48,2.3,4.0,88,0.00,FEW,OVC,0.00,WeatherDisplay:10.37,2013-08-25 13:13:00,
2013-08-25 09:17:00,66.6,62.9,30.44,NE,48,1.5,3.5,88,0.00,FEW,OVC,0.00,WeatherDisplay:10.37,2013-08-25 13:17:00,
2013-08-25 09:18:00,66.8,63.1,30.44,NE,48,0.5,5.0,88,0.00,FEW,OVC,0.00,WeatherDisplay:10.37,2013-08-25 13:18:00,
2013-08-25 09:19:00,66.8,62.8,30.44,NE,48,3.9,4.6,87,0.00,FEW,OVC,0.00,WeatherDisplay:10.37,2013-08-25 13:19:00,
2013-08-25 09:23:00,66.9,62.6,30.44,NE,48,0.4,3.5,86,0.00,FEW,OVC,0.00,WeatherDisplay:10.37,2013-08-25 13:23:00,
2013-08-25 09:24:00,66.9,62.6,30.44,NE,48,0.0,3.5,86,0.00,FEW,OVC,0.00,WeatherDisplay:10.37,2013-08-25 13:24:00,
2013-08-25 09:25:00,66.9,62.9,30.44,NE,48,0.0,1.0,87,0.00,FEW,OVC,0.00,WeatherDisplay:10.37,2013-08-25 13:25:00,
2013-08-25 09:27:00,67.3,63.3,30.44,NE,48,0.0,0.0,87,0.00,FEW,OVC,0.00,WeatherDisplay:10.37,2013-08-25 13:27:00,
2013-08-25 09:28:00,67.3,63.0,30.44,NE,48,0.0,0.0,86,0.00,FEW,OVC,0.00,WeatherDisplay:10.37,2013-08-25 13:28:00,
2013-08-25 09:30:00,67.4,63.4,30.44,NE,48,0.0,0.0,87,0.00,FEW,OVC,0.00,WeatherDisplay:10.37,2013-08-25 13:30:00,
2013-08-25 09:33:00,67.6,63.3,30.44,NE,48,3.6,4.6,86,0.00,FEW,OVC,0.00,WeatherDisplay:10.37,2013-08-25 13:33:00,
2013-08-25 09:34:00,67.6,62.6,30.44,NE,48,2.6,4.6,84,0.00,FEW,OVC,0.00,WeatherDisplay:10.37,2013-08-25 13:34:00,
2013-08-25 09:35:00,67.6,62.6,30.44,NE,48,2.8,5.0,84,0.00,FEW,OVC,0.00,WeatherDisplay:10.37,2013-08-25 13:35:00,
2013-08-25 09:36:00,67.6,62.6,30.44,NE,48,3.4,4.6,84,0.00,FEW,OVC,0.00,WeatherDisplay:10.37,2013-08-25 13:36:00,
2013-08-25 09:38:00,67.4,62.4,30.44,NE,48,0.0,2.3,84,0.00,FEW,OVC,0.00,WeatherDisplay:10.37,2013-08-25 13:38:00,
2013-08-25 09:39:00,67.4,62.4,30.44,NE,48,0.0,0.0,84,0.00,FEW,OVC,0.00,WeatherDisplay:10.37,2013-08-25 13:39:00,
2013-08-25 09:40:00,67.4,62.4,30.44,NE,48,0.0,0.0,84,0.00,FEW,OVC,0.00,WeatherDisplay:10.37,2013-08-25 13:40:00,
2013-08-25 09:41:00,67.6,62.6,30.44,NE,48,0.0,0.0,84,0.00,FEW,OVC,0.00,WeatherDisplay:10.37,2013-08-25 13:41:00,
2013-08-25 09:44:00,67.8,62.8,30.44,NE,48,2.0,4.6,84,0.00,FEW,OVC,0.00,WeatherDisplay:10.37,2013-08-25 13:44:00,
2013-08-25 09:45:00,67.8,62.8,30.44,NE,48,0.8,4.6,84,0.00,FEW,OVC,0.00,WeatherDisplay:10.37,2013-08-25 13:45:00,
2013-08-25 09:47:00,67.9,62.9,30.43,NE,48,1.2,4.6,84,0.00,FEW,OVC,0.00,WeatherDisplay:10.37,2013-08-25 13:47:00,
2013-08-25 09:49:00,68.1,63.1,30.43,NE,48,1.1,3.5,84,0.00,FEW,OVC,0.00,WeatherDisplay:10.37,2013-08-25 13:49:00,
2013-08-25 09:50:00,68.1,62.7,30.43,NE,48,0.0,3.5,83,0.00,FEW,OVC,0.00,WeatherDisplay:10.37,2013-08-25 13:50:00,
2013-08-25 09:51:00,68.1,62.7,30.43,NE,48,0.0,0.0,83,0.00,FEW,OVC,0.00,WeatherDisplay:10.37,2013-08-25 13:51:00,
2013-08-25 09:52:00,68.3,62.9,30.43,NE,48,1.0,3.5,83,0.00,FEW,OVC,0.00,WeatherDisplay:10.37,2013-08-25 13:52:00,
2013-08-25 09:53:00,68.4,63.0,30.43,NE,48,0.7,3.5,83,0.00,FEW,OVC,0.00,WeatherDisplay:10.37,2013-08-25 13:53:00,
2013-08-25 09:55:00,68.8,63.8,30.43,NE,48,0.0,0.0,84,0.00,FEW,OVC,0.00,WeatherDisplay:10.37,2013-08-25 13:55:00,
2013-08-25 09:56:00,68.9,63.2,30.43,NE,48,0.0,1.1,82,0.00,FEW,OVC,0.00,WeatherDisplay:10.37,2013-08-25 13:56:00,
2013-08-25 09:58:00,68.9,63.2,30.43,NE,48,0.0,0.0,82,0.00,FEW,OVC,0.00,WeatherDisplay:10.37,2013-08-25 13:58:00,
2013-08-25 09:59:00,68.9,63.2,30.43,NE,48,0.0,0.0,82,0.00,FEW,OVC,0.00,WeatherDisplay:10.37,2013-08-25 13:59:00,
2013-08-25 10:00:00,68.9,63.2,30.44,NE,48,0.0,0.0,82,0.00,FEW,OVC,0.00,WeatherDisplay:10.37,2013-08-25 14:00:00,
2013-08-25 10:03:00,69.3,63.9,30.44,NE,48,0.7,5.0,83,0.00,FEW,OVC,0.00,WeatherDisplay:10.37,2013-08-25 14:03:00,
2013-08-25 10:04:00,69.3,62.9,30.44,NE,49,4.4,7.0,80,0.00,FEW,OVC,0.00,WeatherDisplay:10.37,2013-08-25 14:04:00,
2013-08-25 10:05:00,69.3,61.4,30.44,NE,51,5.0,6.9,76,0.00,FEW,OVC,0.00,WeatherDisplay:10.37,2013-08-25 14:05:00,
2013-08-25 10:07:00,69.6,61.7,30.44,NE,51,3.9,5.8,76,0.00,FEW,OVC,0.00,WeatherDisplay:10.37,2013-08-25 14:07:00,
2013-08-25 10:08:00,69.8,61.9,30.44,NE,51,4.1,5.8,76,0.00,FEW,OVC,0.00,WeatherDisplay:10.37,2013-08-25 14:08:00,
2013-08-25 10:09:00,69.8,61.9,30.44,NE,51,3.7,5.8,76,0.00,FEW,OVC,0.00,WeatherDisplay:10.37,2013-08-25 14:09:00,
2013-08-25 10:10:00,69.9,62.0,30.44,NE,51,0.9,5.0,76,0.00,FEW,OVC,0.00,WeatherDisplay:10.37,2013-08-25 14:10:00,
2013-08-25 10:11:00,69.9,62.0,30.44,NE,53,5.4,6.9,76,0.00,FEW,OVC,0.00,WeatherDisplay:10.37,2013-08-25 14:11:00,
2013-08-25 10:12:00,70.1,60.7,30.44,ENE,57,5.4,6.9,72,0.00,FEW,OVC,0.00,WeatherDisplay:10.37,2013-08-25 14:12:00,
2013-08-25 10:13:00,70.1,60.7,30.44,ENE,57,5.1,6.0,72,0.00,FEW,OVC,0.00,WeatherDisplay:10.37,2013-08-25 14:13:00,
2013-08-25 10:16:00,70.4,60.9,30.44,NE,47,5.7,9.0,72,0.00,FEW,OVC,0.00,WeatherDisplay:10.37,2013-08-25 14:16:00,
2013-08-25 10:17:00,70.4,60.9,30.44,NE,48,5.9,9.2,72,0.00,FEW,OVC,0.00,WeatherDisplay:10.37,2013-08-25 14:17:00,
2013-08-25 10:18:00,70.4,60.5,30.44,NE,55,7.1,9.2,71,0.00,FEW,OVC,0.00,WeatherDisplay:10.37,2013-08-25 14:18:00,
2013-08-25 10:22:00,70.4,60.9,30.44,NE,55,0.8,3.5,72,0.00,FEW,OVC,0.00,WeatherDisplay:10.37,2013-08-25 14:22:00,
2013-08-25 10:23:00,70.6,61.1,30.44,NE,53,0.6,3.5,72,0.00,FEW,OVC,0.00,WeatherDisplay:10.37,2013-08-25 14:23:00,
2013-08-25 10:24:00,70.8,61.7,30.44,NE,44,1.1,4.6,73,0.00,FEW,OVC,0.00,WeatherDisplay:10.37,2013-08-25 14:24:00,
2013-08-25 10:25:00,70.8,62.1,30.44,NE,44,3.7,4.6,74,0.00,FEW,OVC,0.00,WeatherDisplay:10.37,2013-08-25 14:25:00,
2013-08-25 10:28:00,70.8,60.9,30.44,NE,44,2.7,5.8,71,0.00,FEW,OVC,0.00,WeatherDisplay:10.37,2013-08-25 14:28:00,
2013-08-25 10:30:00,70.9,61.8,30.44,NE,44,3.5,5.8,73,0.00,FEW,OVC,0.00,WeatherDisplay:10.37,2013-08-25 14:30:00,
2013-08-25 10:33:00,71.3,61.8,30.44,NE,47,4.2,4.6,72,0.00,FEW,OVC,0.00,WeatherDisplay:10.37,2013-08-25 14:33:00,
2013-08-25 10:35:00,71.3,61.4,30.44,NE,34,1.7,6.9,71,0.00,FEW,OVC,0.00,WeatherDisplay:10.37,2013-08-25 14:35:00,
2013-08-25 10:36:00,71.3,61.4,30.44,NE,34,0.3,3.5,71,0.00,FEW,OVC,0.00,WeatherDisplay:10.37,2013-08-25 14:36:00,
2013-08-25 10:38:00,71.3,61.0,30.44,NE,46,5.1,9.2,70,0.00,FEW,OVC,0.00,WeatherDisplay:10.37,2013-08-25 14:38:00,
2013-08-25 10:41:00,71.3,61.4,30.44,NE,47,4.4,7.0,71,0.00,FEW,OVC,0.00,WeatherDisplay:10.37,2013-08-25 14:41:00,
2013-08-25 10:43:00,71.3,60.6,30.44,NE,39,6.6,7.0,69,0.00,FEW,OVC,0.00,WeatherDisplay:10.37,2013-08-25 14:43:00,
2013-08-25 10:44:00,71.1,60.4,30.44,NE,40,7.4,9.2,69,0.00,FEW,OVC,0.00,WeatherDisplay:10.37,2013-08-25 14:44:00,
2013-08-25 10:46:00,70.9,60.6,30.44,NE,40,3.6,5.8,70,0.00,FEW,OVC,0.00,WeatherDisplay:10.37,2013-08-25 14:46:00,
2013-08-25 10:47:00,70.9,60.6,30.44,NE,41,3.7,7.0,70,0.00,FEW,OVC,0.00,WeatherDisplay:10.37,2013-08-25 14:47:00,
2013-08-25 10:48:00,70.9,61.0,30.44,NE,48,5.0,6.9,71,0.00,FEW,OVC,0.00,WeatherDisplay:10.37,2013-08-25 14:48:00,
2013-08-25 10:49:00,70.9,61.0,30.44,NE,48,5.1,6.9,71,0.00,FEW,OVC,0.00,WeatherDisplay:10.37,2013-08-25 14:49:00,
2013-08-25 10:52:00,70.9,60.6,30.44,NNE,32,2.3,4.6,70,0.00,FEW,OVC,0.00,WeatherDisplay:10.37,2013-08-25 14:52:00,
2013-08-25 10:53:00,70.9,61.4,30.44,NNE,30,0.7,3.5,72,0.00,FEW,OVC,0.00,WeatherDisplay:10.37,2013-08-25 14:53:00,
2013-08-25 10:54:00,71.1,61.6,30.44,NNE,30,0.2,4.0,72,0.00,FEW,OVC,0.00,WeatherDisplay:10.37,2013-08-25 14:54:00,
2013-08-25 10:55:00,71.1,61.6,30.44,NNE,30,2.9,6.0,72,0.00,FEW,OVC,0.00,WeatherDisplay:10.37,2013-08-25 14:55:00,
2013-08-25 10:57:00,71.1,61.6,30.44,NNE,30,5.0,7.0,72,0.00,FEW,OVC,0.00,WeatherDisplay:10.37,2013-08-25 14:57:00,
2013-08-25 10:58:00,71.1,61.2,30.44,NNE,30,4.0,6.9,71,0.00,FEW,OVC,0.00,WeatherDisplay:10.37,2013-08-25 14:58:00,
2013-08-25 10:59:00,71.1,60.8,30.44,NNE,30,3.2,6.9,70,0.00,FEW,OVC,0.00,WeatherDisplay:10.37,2013-08-25 14:59:00,
2013-08-25 11:00:00,71.1,61.2,30.44,NNE,30,0.0,7.0,71,0.00,FEW,OVC,0.00,WeatherDisplay:10.37,2013-08-25 15:00:00,
2013-08-25 11:02:00,71.1,61.2,30.44,NNE,20,1.5,6.0,71,0.00,SCT,OVC,0.00,WeatherDisplay:10.37,2013-08-25 15:02:00,
2013-08-25 11:03:00,71.1,61.2,30.44,NNE,30,4.8,8.1,71,0.00,SCT,OVC,0.00,WeatherDisplay:10.37,2013-08-25 15:03:00,
2013-08-25 11:04:00,71.1,61.2,30.44,NNE,30,2.6,4.6,71,0.00,SCT,OVC,0.00,WeatherDisplay:10.37,2013-08-25 15:04:00,
2013-08-25 11:05:00,71.1,61.6,30.44,NNE,30,0.7,4.6,72,0.00,SCT,OVC,0.00,WeatherDisplay:10.37,2013-08-25 15:05:00,
2013-08-25 11:08:00,71.3,61.4,30.44,NE,47,4.8,6.9,71,0.00,SCT,OVC,0.00,WeatherDisplay:10.37,2013-08-25 15:08:00,
2013-08-25 11:10:00,71.1,61.2,30.44,NE,35,6.5,10.4,71,0.00,SCT,OVC,0.00,WeatherDisplay:10.37,2013-08-25 15:10:00,
2013-08-25 11:11:00,71.1,60.8,30.44,NE,38,6.5,7.0,70,0.00,SCT,OVC,0.00,WeatherDisplay:10.37,2013-08-25 15:11:00,
2013-08-25 11:14:00,70.9,60.6,30.44,NE,38,5.1,7.0,70,0.00,SCT,OVC,0.00,WeatherDisplay:10.37,2013-08-25 15:14:00,
2013-08-25 11:15:00,71.1,61.6,30.44,NNE,29,4.4,9.2,72,0.00,SCT,OVC,0.00,WeatherDisplay:10.37,2013-08-25 15:15:00,
2013-08-25 11:16:00,71.3,62.2,30.43,NNE,29,4.4,9.2,73,0.00,SCT,OVC,0.00,WeatherDisplay:10.37,2013-08-25 15:16:00,
2013-08-25 11:18:00,71.5,61.6,30.43,NNE,29,6.5,6.9,71,0.00,SCT,OVC,0.00,WeatherDisplay:10.37,2013-08-25 15:18:00,
2013-08-25 11:19:00,71.6,60.9,30.43,NNE,31,5.0,10.4,69,0.00,SCT,OVC,0.00,WeatherDisplay:10.37,2013-08-25 15:19:00,
2013-08-25 11:21:00,71.8,61.5,30.43,NNE,22,2.4,4.6,70,0.00,SCT,OVC,0.00,WeatherDisplay:10.37,2013-08-25 15:21:00,
2013-08-25 11:23:00,72.0,61.7,30.43,NNE,26,3.5,6.9,70,0.00,SCT,OVC,0.00,WeatherDisplay:10.37,2013-08-25 15:23:00,
2013-08-25 11:24:00,72.0,62.1,30.43,NNE,30,2.8,5.8,71,0.00,SCT,OVC,0.00,WeatherDisplay:10.37,2013-08-25 15:24:00,
2013-08-25 11:25:00,72.1,61.4,30.43,NNE,30,0.2,4.6,69,0.00,SCT,OVC,0.00,WeatherDisplay:10.37,2013-08-25 15:25:00,
2013-08-25 11:26:00,72.3,61.1,30.43,NNE,32,4.3,5.8,68,0.00,SCT,OVC,0.00,WeatherDisplay:10.37,2013-08-25 15:26:00,
2013-08-25 11:28:00,72.7,61.5,30.44,NNE,32,0.0,0.0,68,0.00,SCT,OVC,0.00,WeatherDisplay:10.37,2013-08-25 15:28:00,
2013-08-25 11:30:00,72.8,62.0,30.43,NNE,32,5.0,7.0,69,0.00,SCT,OVC,0.00,WeatherDisplay:10.37,2013-08-25 15:30:00,
2013-08-25 11:31:00,72.7,61.1,30.43,NE,34,1.9,5.8,67,0.00,SCT,OVC,0.00,WeatherDisplay:10.37,2013-08-25 15:31:00,
2013-08-25 11:33:00,72.7,60.7,30.43,NE,34,0.6,3.5,66,0.00,SCT,OVC,0.00,WeatherDisplay:10.37,2013-08-25 15:33:00,
2013-08-25 11:34:00,72.7,61.1,30.43,NE,36,3.9,7.0,67,0.00,SCT,OVC,0.00,WeatherDisplay:10.37,2013-08-25 15:34:00,
2013-08-25 11:35:00,72.5,60.1,30.43,NE,44,7.1,9.2,65,0.00,SCT,OVC,0.00,WeatherDisplay:10.37,2013-08-25 15:35:00,
2013-08-25 11:36:00,72.5,60.1,30.43,NE,46,7.1,9.2,65,0.00,SCT,OVC,0.00,WeatherDisplay:10.37,2013-08-25 15:36:00,
2013-08-25 11:38:00,72.5,60.5,30.43,NE,42,5.5,9.2,66,0.00,SCT,OVC,0.00,WeatherDisplay:10.37,2013-08-25 15:38:00,
2013-08-25 11:39:00,72.5,60.5,30.43,NE,42,5.3,9.2,66,0.00,SCT,OVC,0.00,WeatherDisplay:10.37,2013-08-25 15:39:00,
2013-08-25 11:41:00,72.5,60.1,30.43,NE,53,7.6,10.4,65,0.00,SCT,OVC,0.00,WeatherDisplay:10.37,2013-08-25 15:41:00,
2013-08-25 11:44:00,72.5,60.1,30.43,ENE,63,5.4,9.2,65,0.00,SCT,OVC,0.00,WeatherDisplay:10.37,2013-08-25 15:44:00,
2013-08-25 11:45:00,72.7,60.7,30.43,NE,54,6.0,10.0,66,0.00,SCT,OVC,0.00,WeatherDisplay:10.37,2013-08-25 15:45:00,
2013-08-25 11:47:00,72.8,61.2,30.43,NE,34,5.6,9.2,67,0.00,SCT,OVC,0.00,WeatherDisplay:10.37,2013-08-25 15:47:00,
2013-08-25 11:49:00,72.7,60.7,30.43,NE,34,3.8,5.0,66,0.00,SCT,OVC,0.00,WeatherDisplay:10.37,2013-08-25 15:49:00,
2013-08-25 11:51:00,72.7,60.7,30.43,NE,34,2.6,4.6,66,0.00,SCT,OVC,0.00,WeatherDisplay:10.37,2013-08-25 15:51:00,
2013-08-25 11:52:00,72.7,60.7,30.43,NE,34,1.1,3.5,66,0.00,SCT,OVC,0.00,WeatherDisplay:10.37,2013-08-25 15:52:00,
2013-08-25 11:54:00,72.7,60.7,30.43,NE,34,3.6,6.0,66,0.00,SCT,OVC,0.00,WeatherDisplay:10.37,2013-08-25 15:54:00,
2013-08-25 11:56:00,72.8,60.3,30.42,NE,44,8.8,9.0,65,0.00,SCT,OVC,0.00,WeatherDisplay:10.37,2013-08-25 15:56:00,
2013-08-25 11:57:00,72.8,59.9,30.42,NE,41,8.3,11.5,64,0.00,SCT,OVC,0.00,WeatherDisplay:10.37,2013-08-25 15:57:00,
2013-08-25 11:58:00,72.8,59.5,30.42,NE,41,9.3,11.5,63,0.00,SCT,OVC,0.00,WeatherDisplay:10.37,2013-08-25 15:58:00,
2013-08-25 12:00:00,72.7,59.4,30.42,NE,46,4.3,9.2,63,0.00,SCT,OVC,0.00,WeatherDisplay:10.37,2013-08-25 16:00:00,
2013-08-25 12:01:00,72.7,59.8,30.42,NE,45,6.0,8.0,64,0.00,BKN,OVC,0.00,WeatherDisplay:10.37,2013-08-25 16:01:00,
2013-08-25 12:03:00,72.8,59.5,30.42,NE,44,3.4,9.2,63,0.00,BKN,OVC,0.00,WeatherDisplay:10.37,2013-08-25 16:03:00,
2013-08-25 12:04:00,73.0,60.1,30.42,NE,34,4.9,10.0,64,0.00,BKN,OVC,0.00,WeatherDisplay:10.37,2013-08-25 16:04:00,
2013-08-25 12:07:00,73.7,60.8,30.42,NNE,21,8.5,11.5,64,0.00,BKN,OVC,0.00,WeatherDisplay:10.37,2013-08-25 16:07:00,
2013-08-25 12:08:00,73.9,61.0,30.42,ENE,58,6.9,11.5,64,0.00,BKN,OVC,0.00,WeatherDisplay:10.37,2013-08-25 16:08:00,
2013-08-25 12:09:00,73.9,60.5,30.42,NE,55,6.4,9.2,63,0.00,BKN,OVC,0.00,WeatherDisplay:10.37,2013-08-25 16:09:00,
2013-08-25 12:11:00,73.7,59.4,30.42,NE,54,7.2,11.5,61,0.00,BKN,OVC,0.00,WeatherDisplay:10.37,2013-08-25 16:11:00,
2013-08-25 12:12:00,73.7,59.4,30.42,NE,50,2.4,4.6,61,0.00,BKN,OVC,0.00,WeatherDisplay:10.37,2013-08-25 16:12:00,
2013-08-25 12:14:00,73.5,59.7,30.42,NE,50,0.0,1.1,62,0.00,BKN,OVC,0.00,WeatherDisplay:10.37,2013-08-25 16:14:00,
2013-08-25 12:16:00,73.5,59.7,30.43,ENE,71,5.2,6.0,62,0.00,BKN,OVC,0.00,WeatherDisplay:10.37,2013-08-25 16:16:00,
2013-08-25 12:17:00,73.5,59.7,30.41,ENE,71,4.4,6.9,62,0.00,BKN,OVC,0.00,WeatherDisplay:10.37,2013-08-25 16:17:00,
2013-08-25 12:19:00,73.7,60.3,30.41,ENE,67,1.8,4.6,63,0.00,BKN,OVC,0.00,WeatherDisplay:10.37,2013-08-25 16:19:00,
2013-08-25 12:21:00,73.7,58.9,30.41,NE,51,5.4,6.9,60,0.00,BKN,OVC,0.00,WeatherDisplay:10.37,2013-08-25 16:21:00,
2013-08-25 12:23:00,74.0,59.7,30.41,ENE,68,9.0,11.5,61,0.00,BKN,OVC,0.00,WeatherDisplay:10.37,2013-08-25 16:23:00,
2013-08-25 12:24:00,74.0,59.2,30.41,NE,56,7.4,11.5,60,0.00,BKN,OVC,0.00,WeatherDisplay:10.37,2013-08-25 16:24:00,
2013-08-25 12:26:00,74.2,59.9,30.41,ENE,64,4.9,9.2,61,0.00,BKN,OVC,0.00,WeatherDisplay:10.37,2013-08-25 16:26:00,
2013-08-25 12:27:00,74.2,59.4,30.41,NE,51,6.0,11.0,60,0.00,BKN,OVC,0.00,WeatherDisplay:10.37,2013-08-25 16:27:00,
2013-08-25 12:29:00,74.4,60.1,30.41,NNE,24,5.9,11.5,61,0.00,BKN,OVC,0.00,WeatherDisplay:10.37,2013-08-25 16:29:00,
2013-08-25 12:30:00,74.2,58.9,30.41,NNE,23,3.2,8.1,59,0.00,BKN,OVC,0.00,WeatherDisplay:10.37,2013-08-25 16:30:00,
2013-08-25 12:32:00,74.0,59.7,30.41,NNW,346,5.5,12.0,61,0.00,BKN,OVC,0.00,WeatherDisplay:10.37,2013-08-25 16:32:00,
2013-08-25 12:34:00,73.9,60.5,30.41,NNE,17,5.6,9.2,63,0.00,BKN,OVC,0.00,WeatherDisplay:10.37,2013-08-25 16:34:00,
2013-08-25 12:35:00,73.9,60.1,30.41,NNE,15,3.9,9.2,62,0.00,BKN,OVC,0.00,WeatherDisplay:10.37,2013-08-25 16:35:00,
2013-08-25 12:38:00,73.5,59.2,30.41,NNE,26,5.9,6.9,61,0.00,BKN,OVC,0.00,WeatherDisplay:10.37,2013-08-25 16:38:00,
2013-08-25 12:39:00,73.3,59.0,30.41,NNE,23,6.2,8.1,61,0.00,BKN,OVC,0.00,WeatherDisplay:10.37,2013-08-25 16:39:00,
2013-08-25 12:40:00,73.3,59.5,30.41,NNE,12,4.7,6.9,62,0.00,BKN,OVC,0.00,WeatherDisplay:10.37,2013-08-25 16:40:00,
2013-08-25 12:41:00,73.3,59.5,30.41,NNE,13,4.4,6.9,62,0.00,BKN,OVC,0.00,WeatherDisplay:10.37,2013-08-25 16:41:00,
2013-08-25 12:43:00,73.3,60.8,30.41,NNE,15,1.4,4.6,65,0.00,BKN,OVC,0.00,WeatherDisplay:10.37,2013-08-25 16:43:00,
2013-08-25 12:45:00,73.3,59.9,30.41,ENE,58,4.6,7.0,63,0.00,BKN,OVC,0.00,WeatherDisplay:10.37,2013-08-25 16:45:00,
2013-08-25 12:46:00,73.3,59.5,30.41,NE,56,7.5,9.2,62,0.00,BKN,OVC,0.00,WeatherDisplay:10.37,2013-08-25 16:46:00,
2013-08-25 12:48:00,73.5,60.1,30.41,ENE,68,4.8,9.2,63,0.00,BKN,OVC,0.00,WeatherDisplay:10.37,2013-08-25 16:48:00,
2013-08-25 12:49:00,73.5,59.7,30.41,ENE,69,5.2,7.0,62,0.00,BKN,OVC,0.00,WeatherDisplay:10.37,2013-08-25 16:49:00,
2013-08-25 12:50:00,73.5,59.7,30.41,ENE,63,5.9,8.1,62,0.00,BKN,OVC,0.00,WeatherDisplay:10.37,2013-08-25 16:50:00,
2013-08-25 12:51:00,73.5,59.2,30.41,ENE,62,6.2,9.2,61,0.00,BKN,OVC,0.00,WeatherDisplay:10.37,2013-08-25 16:51:00,
2013-08-25 12:52:00,73.9,59.1,30.41,ENE,61,4.6,6.9,60,0.00,BKN,OVC,0.00,WeatherDisplay:10.37,2013-08-25 16:52:00,
2013-08-25 12:54:00,74.0,60.2,30.41,East,81,6.6,7.0,62,0.00,BKN,OVC,0.00,WeatherDisplay:10.37,2013-08-25 16:54:00,
2013-08-25 12:55:00,74.2,58.5,30.41,East,81,4.8,9.2,58,0.00,BKN,OVC,0.00,WeatherDisplay:10.37,2013-08-25 16:55:00,
2013-08-25 12:57:00,74.7,60.8,30.41,ENE,59,7.4,11.0,62,0.00,BKN,OVC,0.00,WeatherDisplay:10.37,2013-08-25 16:57:00,
2013-08-25 12:58:00,74.9,60.5,30.41,East,95,5.9,11.5,61,0.00,BKN,OVC,0.00,WeatherDisplay:10.37,2013-08-25 16:58:00,
2013-08-25 13:00:00,75.1,58.8,30.40,NE,53,5.4,10.4,57,0.00,BKN,OVC,0.00,WeatherDisplay:10.37,2013-08-25 17:00:00,
2013-08-25 13:02:00,75.1,59.3,30.40,NNE,25,7.3,10.4,58,0.00,BKN,OVC,0.00,WeatherDisplay:10.37,2013-08-25 17:02:00,
2013-08-25 13:05:00,74.9,59.1,30.40,NNE,17,0.5,10.4,58,0.00,BKN,OVC,0.00,WeatherDisplay:10.37,2013-08-25 17:05:00,
2013-08-25 13:06:00,74.7,59.9,30.40,NNE,21,3.0,6.0,60,0.00,BKN,OVC,0.00,WeatherDisplay:10.37,2013-08-25 17:06:00,
2013-08-25 13:07:00,74.7,58.9,30.40,NNE,20,5.5,7.0,58,0.00,BKN,OVC,0.00,WeatherDisplay:10.37,2013-08-25 17:07:00,
2013-08-25 13:08:00,74.6,58.8,30.40,NNE,20,4.8,6.9,58,0.00,BKN,OVC,0.00,WeatherDisplay:10.37,2013-08-25 17:08:00,
2013-08-25 13:10:00,74.4,59.1,30.40,NNE,27,4.7,6.9,59,0.00,BKN,OVC,0.00,WeatherDisplay:10.37,2013-08-25 17:10:00,
2013-08-25 13:11:00,74.4,59.1,30.40,ENE,59,6.7,11.5,59,0.00,BKN,OVC,0.00,WeatherDisplay:10.37,2013-08-25 17:11:00,
2013-08-25 13:12:00,74.4,59.1,30.40,ENE,57,7.5,11.5,59,0.00,BKN,OVC,0.00,WeatherDisplay:10.37,2013-08-25 17:12:00,
2013-08-25 13:14:00,74.2,59.4,30.40,NE,49,7.7,11.5,60,0.00,BKN,OVC,0.00,WeatherDisplay:10.37,2013-08-25 17:14:00,
2013-08-25 13:16:00,74.0,59.2,30.40,NE,51,3.7,6.0,60,0.00,BKN,OVC,0.00,WeatherDisplay:10.37,2013-08-25 17:16:00,
2013-08-25 13:17:00,73.9,59.1,30.40,NE,49,4.6,6.0,60,0.00,BKN,OVC,0.00,WeatherDisplay:10.37,2013-08-25 17:17:00,
2013-08-25 13:18:00,73.9,59.6,30.40,NE,50,4.8,6.9,61,0.00,BKN,OVC,0.00,WeatherDisplay:10.37,2013-08-25 17:18:00,
2013-08-25 13:21:00,73.7,59.4,30.40,NE,40,5.0,5.8,61,0.00,BKN,OVC,0.00,WeatherDisplay:10.37,2013-08-25 17:21:00,
2013-08-25 13:22:00,73.7,59.4,30.40,NE,40,4.7,5.8,61,0.00,BKN,OVC,0.00,WeatherDisplay:10.37,2013-08-25 17:22:00,
2013-08-25 13:23:00,73.7,59.9,30.40,NE,40,3.0,5.8,62,0.00,BKN,OVC,0.00,WeatherDisplay:10.37,2013-08-25 17:23:00,
2013-08-25 13:24:00,73.7,59.9,30.40,NE,40,3.1,4.0,62,0.00,BKN,OVC,0.00,WeatherDisplay:10.37,2013-08-25 17:24:00,
2013-08-25 13:27:00,74.0,61.9,30.40,NE,39,4.6,6.9,66,0.00,BKN,OVC,0.00,WeatherDisplay:10.37,2013-08-25 17:27:00,
2013-08-25 13:28:00,74.2,59.4,30.40,NE,40,6.0,7.0,60,0.00,BKN,OVC,0.00,WeatherDisplay:10.37,2013-08-25 17:28:00,
2013-08-25 13:29:00,74.4,58.7,30.40,NE,40,6.1,9.2,58,0.00,BKN,OVC,0.00,WeatherDisplay:10.37,2013-08-25 17:29:00,
2013-08-25 13:32:00,74.6,59.3,30.40,NE,46,11.4,23.0,59,0.00,BKN,OVC,0.00,WeatherDisplay:10.37,2013-08-25 17:32:00,
2013-08-25 13:33:00,74.6,58.4,30.40,ENE,65,8.0,11.5,57,0.00,BKN,OVC,0.00,WeatherDisplay:10.37,2013-08-25 17:33:00,
2013-08-25 13:34:00,74.6,59.3,30.40,ENE,71,9.5,11.5,59,0.00,BKN,OVC,0.00,WeatherDisplay:10.37,2013-08-25 17:34:00,
2013-08-25 13:35:00,74.6,59.3,30.40,ENE,67,9.0,11.5,59,0.00,BKN,OVC,0.00,WeatherDisplay:10.37,2013-08-25 17:35:00,
2013-08-25 13:37:00,74.7,59.4,30.40,NNE,12,4.0,9.2,59,0.00,BKN,OVC,0.00,WeatherDisplay:10.37,2013-08-25 17:37:00,
2013-08-25 13:39:00,74.6,59.3,30.40,NNE,24,3.1,4.0,59,0.00,BKN,OVC,0.00,WeatherDisplay:10.37,2013-08-25 17:39:00,
2013-08-25 13:44:00,74.6,59.8,30.40,NE,44,1.6,5.0,60,0.00,BKN,OVC,0.00,WeatherDisplay:10.37,2013-08-25 17:44:00,
2013-08-25 13:45:00,74.6,59.8,30.40,NE,43,9.6,12.0,60,0.00,BKN,OVC,0.00,WeatherDisplay:10.37,2013-08-25 17:45:00,
2013-08-25 13:47:00,74.4,59.1,30.40,NE,34,8.2,10.4,59,0.00,BKN,OVC,0.00,WeatherDisplay:10.37,2013-08-25 17:47:00,
2013-08-25 13:49:00,74.4,59.6,30.40,North,360,3.3,9.2,60,0.00,BKN,OVC,0.00,WeatherDisplay:10.37,2013-08-25 17:49:00,
2013-08-25 13:50:00,74.2,59.9,30.40,ENE,57,3.1,9.2,61,0.00,BKN,OVC,0.00,WeatherDisplay:10.37,2013-08-25 17:50:00,
2013-08-25 13:53:00,74.0,58.3,30.40,NE,53,8.0,11.5,58,0.00,BKN,OVC,0.00,WeatherDisplay:10.37,2013-08-25 17:53:00,
2013-08-25 13:54:00,74.2,58.9,30.40,ENE,69,3.9,11.5,59,0.00,BKN,OVC,0.00,WeatherDisplay:10.37,2013-08-25 17:54:00,
2013-08-25 13:56:00,74.4,60.1,30.40,ENE,65,5.7,6.9,61,0.00,BKN,OVC,0.00,WeatherDisplay:10.37,2013-08-25 17:56:00,
2013-08-25 13:57:00,74.7,59.4,30.40,ENE,63,5.3,10.0,59,0.00,BKN,OVC,0.00,WeatherDisplay:10.37,2013-08-25 17:57:00,
2013-08-25 13:58:00,74.9,58.6,30.40,East,96,7.2,11.0,57,0.00,BKN,OVC,0.00,WeatherDisplay:10.37,2013-08-25 17:58:00,
2013-08-25 14:01:00,75.3,58.0,30.40,ENE,71,9.2,11.5,55,0.00,BKN,OVC,0.00,WeatherDisplay:10.37,2013-08-25 18:01:00,
2013-08-25 14:02:00,75.3,58.0,30.40,East,87,8.1,11.0,55,0.00,BKN,OVC,0.00,WeatherDisplay:10.37,2013-08-25 18:02:00,
2013-08-25 14:03:00,75.4,59.1,30.40,East,90,9.5,11.5,57,0.00,BKN,OVC,0.00,WeatherDisplay:10.37,2013-08-25 18:03:00,
2013-08-25 14:06:00,75.8,58.5,30.40,ENE,63,9.2,12.7,55,0.00,BKN,OVC,0.00,WeatherDisplay:10.37,2013-08-25 18:06:00,
2013-08-25 14:07:00,75.8,59.0,30.40,East,83,5.4,11.5,56,0.00,BKN,OVC,0.00,WeatherDisplay:10.37,2013-08-25 18:07:00,
2013-08-25 14:08:00,75.8,59.0,30.40,ENE,69,4.4,11.5,56,0.00,BKN,OVC,0.00,WeatherDisplay:10.37,2013-08-25 18:08:00,
2013-08-25 14:10:00,75.8,58.5,30.40,ENE,71,6.1,9.2,55,0.00,BKN,OVC,0.00,WeatherDisplay:10.37,2013-08-25 18:10:00,
2013-08-25 14:12:00,75.6,58.3,30.40,NE,44,6.3,10.4,55,0.00,BKN,OVC,0.00,WeatherDisplay:10.37,2013-08-25 18:12:00,
2013-08-25 14:13:00,75.4,58.6,30.40,NE,45,6.0,9.2,56,0.00,BKN,OVC,0.00,WeatherDisplay:10.37,2013-08-25 18:13:00,
2013-08-25 14:14:00,75.4,57.6,30.40,NE,46,5.6,9.2,54,0.00,BKN,OVC,0.00,WeatherDisplay:10.37,2013-08-25 18:14:00,
2013-08-25 14:15:00,75.3,58.5,30.40,NE,53,5.1,6.9,56,0.00,BKN,OVC,0.00,WeatherDisplay:10.37,2013-08-25 18:15:00,
2013-08-25 14:17:00,75.1,59.3,30.40,NE,52,2.8,6.9,58,0.00,BKN,OVC,0.00,WeatherDisplay:10.37,2013-08-25 18:17:00,
2013-08-25 14:20:00,74.9,58.1,30.39,NE,42,4.2,4.2,56,0.00,BKN,OVC,0.00,WeatherDisplay:10.37,2013-08-25 18:20:00,
2013-08-25 14:22:00,74.7,58.9,30.39,NNE,17,3.3,11.5,58,0.00,BKN,OVC,0.00,WeatherDisplay:10.37,2013-08-25 18:22:00,
2013-08-25 14:23:00,74.6,58.8,30.39,NE,45,7.1,10.4,58,0.00,BKN,OVC,0.00,WeatherDisplay:10.37,2013-08-25 18:23:00,
2013-08-25 14:26:00,74.4,57.7,30.39,NE,51,4.8,9.0,56,0.00,BKN,OVC,0.00,WeatherDisplay:10.37,2013-08-25 18:26:00,
2013-08-25 14:27:00,74.4,57.7,30.39,ENE,61,5.8,9.2,56,0.00,BKN,OVC,0.00,WeatherDisplay:10.37,2013-08-25 18:27:00,
2013-08-25 14:29:00,74.6,58.8,30.39,ENE,59,5.2,9.0,58,0.00,BKN,OVC,0.00,WeatherDisplay:10.37,2013-08-25 18:29:00,
2013-08-25 14:31:00,74.9,57.1,30.39,East,82,6.2,8.1,54,0.00,BKN,OVC,0.00,WeatherDisplay:10.37,2013-08-25 18:31:00,
2013-08-25 14:33:00,75.4,58.1,30.39,East,86,5.0,6.9,55,0.00,BKN,OVC,0.00,WeatherDisplay:10.37,2013-08-25 18:33:00,
2013-08-25 14:34:00,75.4,58.1,30.39,East,101,5.2,7.0,55,0.00,BKN,OVC,0.00,WeatherDisplay:10.37,2013-08-25 18:34:00,
2013-08-25 14:35:00,75.6,57.3,30.39,ESE,109,5.4,9.2,53,0.00,BKN,OVC,0.00,WeatherDisplay:10.37,2013-08-25 18:35:00,
2013-08-25 14:36:00,75.8,57.4,30.39,ESE,117,6.2,9.2,53,0.00,BKN,OVC,0.00,WeatherDisplay:10.37,2013-08-25 18:36:00,
2013-08-25 14:39:00,76.0,58.2,30.39,ESE,118,5.8,9.2,54,0.00,BKN,OVC,0.00,WeatherDisplay:10.37,2013-08-25 18:39:00,
2013-08-25 14:40:00,76.0,58.2,30.39,ESE,118,2.2,5.8,54,0.00,BKN,OVC,0.00,WeatherDisplay:10.37,2013-08-25 18:40:00,
2013-08-25 14:42:00,76.1,59.8,30.39,North,9,0.0,1.1,57,0.00,BKN,OVC,0.00,WeatherDisplay:10.37,2013-08-25 18:42:00,
2013-08-25 14:43:00,76.0,59.7,30.39,NNE,17,0.8,3.5,57,0.00,BKN,OVC,0.00,WeatherDisplay:10.37,2013-08-25 18:43:00,
2013-08-25 14:44:00,75.8,59.5,30.38,NE,34,3.8,8.1,57,0.00,BKN,OVC,0.00,WeatherDisplay:10.37,2013-08-25 18:44:00,
2013-08-25 14:45:00,75.6,59.3,30.38,NE,48,5.0,8.1,57,0.00,BKN,OVC,0.00,WeatherDisplay:10.37,2013-08-25 18:45:00,
2013-08-25 14:47:00,75.1,59.3,30.38,North,360,1.0,6.9,58,0.00,BKN,OVC,0.00,WeatherDisplay:10.37,2013-08-25 18:47:00,
2013-08-25 14:48:00,74.9,59.1,30.38,NE,35,0.1,7.0,58,0.00,BKN,OVC,0.00,WeatherDisplay:10.37,2013-08-25 18:48:00,
2013-08-25 14:49:00,74.7,58.9,30.38,NE,46,4.7,6.9,58,0.00,BKN,OVC,0.00,WeatherDisplay:10.37,2013-08-25 18:49:00,
2013-08-25 14:50:00,74.6,58.8,30.38,NE,47,3.1,4.6,58,0.00,BKN,OVC,0.00,WeatherDisplay:10.37,2013-08-25 18:50:00,
2013-08-25 14:51:00,74.6,58.8,30.38,NE,47,2.1,4.6,58,0.00,BKN,OVC,0.00,WeatherDisplay:10.37,2013-08-25 18:51:00,
2013-08-25 14:54:00,74.4,59.6,30.38,NE,47,0.0,0.0,60,0.00,BKN,OVC,0.00,WeatherDisplay:10.37,2013-08-25 18:54:00,
2013-08-25 14:55:00,74.4,60.1,30.38,NE,45,0.2,2.3,61,0.00,BKN,OVC,0.00,WeatherDisplay:10.37,2013-08-25 18:55:00,
2013-08-25 14:56:00,74.4,60.1,30.38,NE,40,0.1,1.1,61,0.00,BKN,OVC,0.00,WeatherDisplay:10.37,2013-08-25 18:56:00,
2013-08-25 14:59:00,74.4,59.1,30.38,NE,37,0.0,3.5,59,0.00,BKN,OVC,0.00,WeatherDisplay:10.37,2013-08-25 18:59:00,
2013-08-25 15:01:00,74.6,58.8,30.38,NNW,333,6.0,10.0,58,0.00,BKN,OVC,0.00,WeatherDisplay:10.37,2013-08-25 19:01:00,
2013-08-25 15:02:00,74.6,57.9,30.38,NW,322,5.7,10.4,56,0.00,BKN,OVC,0.00,WeatherDisplay:10.37,2013-08-25 19:02:00,
2013-08-25 15:06:00,75.3,57.5,30.38,NE,36,3.9,6.9,54,0.00,BKN,OVC,0.00,WeatherDisplay:10.37,2013-08-25 19:06:00,
2013-08-25 15:07:00,75.4,57.6,30.38,NE,36,4.5,6.9,54,0.00,BKN,OVC,0.00,WeatherDisplay:10.37,2013-08-25 19:07:00,
2013-08-25 15:08:00,75.6,57.8,30.38,ENE,77,4.7,6.9,54,0.00,BKN,OVC,0.00,WeatherDisplay:10.37,2013-08-25 19:08:00,
2013-08-25 15:12:00,76.1,58.8,30.38,NE,37,3.4,9.0,55,0.00,BKN,OVC,0.00,WeatherDisplay:10.37,2013-08-25 19:12:00,
2013-08-25 15:13:00,76.1,57.7,30.38,East,100,6.4,9.2,53,0.00,BKN,OVC,0.00,WeatherDisplay:10.37,2013-08-25 19:13:00,
2013-08-25 15:14:00,76.1,57.7,30.38,East,96,6.5,9.2,53,0.00,BKN,OVC,0.00,WeatherDisplay:10.37,2013-08-25 19:14:00,
2013-08-25 15:15:00,76.0,57.1,30.38,East,92,5.4,10.4,52,0.00,BKN,OVC,0.00,WeatherDisplay:10.37,2013-08-25 19:15:00,
2013-08-25 15:17:00,76.0,57.6,30.36,East,86,4.8,5.8,53,0.00,BKN,OVC,0.00,WeatherDisplay:10.37,2013-08-25 19:17:00,
2013-08-25 15:18:00,76.0,58.7,30.36,ENE,66,5.2,8.1,55,0.00,BKN,OVC,0.00,WeatherDisplay:10.37,2013-08-25 19:18:00,
2013-08-25 15:19:00,76.0,58.7,30.36,NE,55,5.5,8.1,55,0.00,BKN,OVC,0.00,WeatherDisplay:10.37,2013-08-25 19:19:00,
2013-08-25 15:20:00,76.0,56.6,30.36,ENE,78,12.3,15.0,51,0.00,BKN,OVC,0.00,WeatherDisplay:10.37,2013-08-25 19:20:00,
2013-08-25 15:21:00,76.0,54.9,30.36,ENE,68,10.4,15.0,48,0.00,BKN,OVC,0.00,WeatherDisplay:10.37,2013-08-25 19:21:00,
2013-08-25 15:22:00,76.0,56.0,30.36,ENE,68,8.9,12.0,50,0.00,BKN,OVC,0.00,WeatherDisplay:10.37,2013-08-25 19:22:00,
2013-08-25 15:24:00,75.8,55.8,30.36,East,82,5.6,10.4,50,0.00,BKN,OVC,0.00,WeatherDisplay:10.37,2013-08-25 19:24:00,
2013-08-25 15:25:00,75.8,55.8,30.36,East,83,6.0,9.2,50,0.00,BKN,OVC,0.00,WeatherDisplay:10.37,2013-08-25 19:25:00,
2013-08-25 15:28:00,76.0,56.0,30.36,ESE,123,7.6,10.4,50,0.00,BKN,OVC,0.00,WeatherDisplay:10.37,2013-08-25 19:28:00,
2013-08-25 15:29:00,76.1,55.0,30.36,SE,126,9.8,12.7,48,0.00,BKN,OVC,0.00,WeatherDisplay:10.37,2013-08-25 19:29:00,
2013-08-25 15:30:00,76.1,55.0,30.36,ESE,107,9.2,12.7,48,0.00,BKN,OVC,0.00,WeatherDisplay:10.37,2013-08-25 19:30:00,
2013-08-25 15:31:00,76.1,55.5,30.36,East,100,7.3,11.5,49,0.00,BKN,OVC,0.00,WeatherDisplay:10.37,2013-08-25 19:31:00,
2013-08-25 15:33:00,76.3,56.3,30.36,ESE,105,7.7,11.5,50,0.00,BKN,OVC,0.00,WeatherDisplay:10.37,2013-08-25 19:33:00,
2013-08-25 15:34:00,76.3,56.8,30.36,ESE,105,7.2,11.5,51,0.00,BKN,OVC,0.00,WeatherDisplay:10.37,2013-08-25 19:34:00,
2013-08-25 15:36:00,76.5,56.5,30.36,ESE,109,3.2,4.6,50,0.00,BKN,OVC,0.00,WeatherDisplay:10.37,2013-08-25 19:36:00,
2013-08-25 15:37:00,76.5,56.5,30.36,ESE,109,3.2,4.6,50,0.00,BKN,OVC,0.00,WeatherDisplay:10.37,2013-08-25 19:37:00,
2013-08-25 15:39:00,76.8,57.8,30.36,ESE,113,11.0,13.0,52,0.00,BKN,OVC,0.00,WeatherDisplay:10.37,2013-08-25 19:39:00,
2013-08-25 15:40:00,76.8,57.8,30.36,ESE,115,9.1,12.7,52,0.00,BKN,OVC,0.00,WeatherDisplay:10.37,2013-08-25 19:40:00,
2013-08-25 15:41:00,76.8,57.3,30.36,East,81,10.5,11.5,51,0.00,BKN,OVC,0.00,WeatherDisplay:10.37,2013-08-25 19:41:00,
2013-08-25 15:42:00,76.8,57.3,30.36,ENE,66,10.3,11.5,51,0.00,BKN,OVC,0.00,WeatherDisplay:10.37,2013-08-25 19:42:00,
2013-08-25 15:43:00,76.7,57.7,30.36,NE,45,8.8,11.5,52,0.00,BKN,OVC,0.00,WeatherDisplay:10.37,2013-08-25 19:43:00,
2013-08-25 15:45:00,76.3,56.8,30.36,ENE,73,9.4,11.5,51,0.00,BKN,OVC,0.00,WeatherDisplay:10.37,2013-08-25 19:45:00,
2013-08-25 15:47:00,75.8,57.4,30.35,NE,44,6.6,9.2,53,0.00,BKN,OVC,0.00,WeatherDisplay:10.37,2013-08-25 19:47:00,
2013-08-25 15:48:00,75.6,56.2,30.35,NE,44,5.8,9.2,51,0.00,BKN,OVC,0.00,WeatherDisplay:10.37,2013-08-25 19:48:00,
2013-08-25 15:49:00,75.4,56.0,30.35,NE,44,5.0,6.9,51,0.00,BKN,OVC,0.00,WeatherDisplay:10.37,2013-08-25 19:49:00,
2013-08-25 15:50:00,75.3,56.5,30.35,NE,44,4.3,6.9,52,0.00,BKN,OVC,0.00,WeatherDisplay:10.37,2013-08-25 19:50:00,
2013-08-25 15:53:00,75.4,58.1,30.35,ESE,103,2.9,9.0,55,0.00,BKN,OVC,0.00,WeatherDisplay:10.37,2013-08-25 19:53:00,
2013-08-25 15:54:00,75.4,56.5,30.35,ESE,121,6.5,9.2,52,0.00,BKN,OVC,0.00,WeatherDisplay:10.37,2013-08-25 19:54:00,
2013-08-25 15:55:00,76.0,57.1,30.35,ENE,66,4.3,5.8,52,0.00,BKN,OVC,0.00,WeatherDisplay:10.37,2013-08-25 19:55:00,
2013-08-25 15:57:00,76.1,57.7,30.35,East,86,4.0,5.0,53,0.00,BKN,OVC,0.00,WeatherDisplay:10.37,2013-08-25 19:57:00,
2013-08-25 15:58:00,76.1,57.7,30.35,ESE,108,5.9,11.5,53,0.00,BKN,OVC,0.00,WeatherDisplay:10.37,2013-08-25 19:58:00,
2013-08-25 15:59:00,76.3,56.3,30.35,East,87,8.3,11.5,50,0.00,BKN,OVC,0.00,WeatherDisplay:10.37,2013-08-25 19:59:00,
2013-08-25 16:00:00,76.3,56.3,30.35,East,91,8.0,12.0,50,0.00,BKN,OVC,0.00,WeatherDisplay:10.37,2013-08-25 20:00:00,
2013-08-25 16:03:00,76.5,56.5,30.35,East,101,4.4,9.2,50,0.00,BKN,OVC,0.00,WeatherDisplay:10.37,2013-08-25 20:03:00,
2013-08-25 16:04:00,76.7,56.7,30.35,ESE,121,5.5,7.0,50,0.00,BKN,OVC,0.00,WeatherDisplay:10.37,2013-08-25 20:04:00,
2013-08-25 16:05:00,76.8,57.8,30.35,East,96,5.5,9.2,52,0.00,BKN,OVC,0.00,WeatherDisplay:10.37,2013-08-25 20:05:00,
2013-08-25 16:08:00,77.2,57.1,30.35,SE,134,6.0,10.4,50,0.00,BKN,OVC,0.00,WeatherDisplay:10.37,2013-08-25 20:08:00,
2013-08-25 16:09:00,77.2,57.1,30.35,East,86,1.9,7.0,50,0.00,BKN,OVC,0.00,WeatherDisplay:10.37,2013-08-25 20:09:00,
2013-08-25 16:10:00,77.2,57.1,30.35,East,89,5.9,6.0,50,0.00,BKN,OVC,0.00,WeatherDisplay:10.37,2013-08-25 20:10:00,
2013-08-25 16:11:00,77.2,58.2,30.35,NE,46,5.0,6.9,52,0.00,BKN,OVC,0.00,WeatherDisplay:10.37,2013-08-25 20:11:00,
2013-08-25 16:13:00,76.8,56.8,30.35,NE,48,7.0,10.4,50,0.00,BKN,OVC,0.00,WeatherDisplay:10.37,2013-08-25 20:13:00,
2013-08-25 16:15:00,76.7,57.8,30.35,East,88,6.0,10.0,52,0.00,BKN,OVC,0.00,WeatherDisplay:10.37,2013-08-25 20:15:00,
2013-08-25 16:16:00,76.7,57.7,30.35,NE,51,6.4,9.2,52,0.00,BKN,OVC,0.00,WeatherDisplay:10.37,2013-08-25 20:16:00,
2013-08-25 16:18:00,76.5,57.6,30.35,ENE,67,6.7,11.5,52,0.00,BKN,OVC,0.00,WeatherDisplay:10.37,2013-08-25 20:18:00,
2013-08-25 16:19:00,76.7,57.7,30.35,ENE,65,8.4,12.0,52,0.00,BKN,OVC,0.00,WeatherDisplay:10.37,2013-08-25 20:19:00,
2013-08-25 16:21:00,76.5,55.9,30.35,East,84,7.6,11.5,49,0.00,BKN,OVC,0.00,WeatherDisplay:10.37,2013-08-25 20:21:00,
2013-08-25 16:24:00,76.3,54.6,30.35,East,97,7.0,10.4,47,0.00,BKN,OVC,0.00,WeatherDisplay:10.37,2013-08-25 20:24:00,
2013-08-25 16:25:00,76.3,55.7,30.34,East,94,4.4,5.8,49,0.00,BKN,OVC,0.00,WeatherDisplay:10.37,2013-08-25 20:25:00,
2013-08-25 16:26:00,76.3,55.7,30.34,East,88,4.5,6.0,49,0.00,BKN,OVC,0.00,WeatherDisplay:10.37,2013-08-25 20:26:00,
2013-08-25 16:28:00,76.3,56.3,30.34,East,82,5.1,7.0,50,0.00,BKN,OVC,0.00,WeatherDisplay:10.37,2013-08-25 20:28:00,
2013-08-25 16:29:00,76.1,56.7,30.34,ESE,109,7.2,10.0,51,0.00,BKN,OVC,0.00,WeatherDisplay:10.37,2013-08-25 20:29:00,
2013-08-25 16:30:00,76.1,56.1,30.34,East,92,6.5,10.4,50,0.00,BKN,OVC,0.00,WeatherDisplay:10.37,2013-08-25 20:30:00,
2013-08-25 16:31:00,76.1,56.7,30.33,East,101,5.8,9.2,51,0.00,BKN,OVC,0.00,WeatherDisplay:10.37,2013-08-25 20:31:00,
2013-08-25 16:34:00,76.3,56.8,30.33,ESE,109,4.6,6.9,51,0.00,BKN,OVC,0.00,WeatherDisplay:10.37,2013-08-25 20:34:00,
2013-08-25 16:35:00,76.3,57.4,30.33,SE,128,3.9,6.9,52,0.00,BKN,OVC,0.00,WeatherDisplay:10.37,2013-08-25 20:35:00,
2013-08-25 16:36:00,76.5,57.6,30.34,ESE,119,6.1,9.0,52,0.00,BKN,OVC,0.00,WeatherDisplay:10.37,2013-08-25 20:36:00,
2013-08-25 16:39:00,76.7,57.2,30.34,East,90,6.3,9.2,51,0.00,BKN,OVC,0.00,WeatherDisplay:10.37,2013-08-25 20:39:00,
2013-08-25 16:40:00,76.5,56.5,30.34,East,91,5.0,9.2,50,0.00,BKN,OVC,0.00,WeatherDisplay:10.37,2013-08-25 20:40:00,
2013-08-25 16:41:00,76.7,58.3,30.34,East,82,4.4,6.9,53,0.00,BKN,OVC,0.00,WeatherDisplay:10.37,2013-08-25 20:41:00,
2013-08-25 16:42:00,76.7,58.3,30.34,East,82,3.6,6.9,53,0.00,BKN,OVC,0.00,WeatherDisplay:10.37,2013-08-25 20:42:00,
2013-08-25 16:44:00,76.7,58.3,30.34,NE,54,5.7,6.9,53,0.00,BKN,OVC,0.00,WeatherDisplay:10.37,2013-08-25 20:44:00,
2013-08-25 16:45:00,76.5,57.6,30.34,NE,55,6.6,9.2,52,0.00,BKN,OVC,0.00,WeatherDisplay:10.37,2013-08-25 20:45:00,
2013-08-25 16:47:00,76.5,59.1,30.34,NE,54,5.4,6.9,55,0.00,BKN,OVC,0.00,WeatherDisplay:10.37,2013-08-25 20:47:00,
2013-08-25 16:48:00,76.3,57.9,30.34,NE,49,8.9,11.5,53,0.00,BKN,OVC,0.00,WeatherDisplay:10.37,2013-08-25 20:48:00,
2013-08-25 16:50:00,76.1,57.2,30.34,NE,36,7.3,10.4,52,0.00,BKN,OVC,0.00,WeatherDisplay:10.37,2013-08-25 20:50:00,
2013-08-25 16:52:00,75.8,56.9,30.34,NE,45,4.6,5.8,52,0.00,BKN,OVC,0.00,WeatherDisplay:10.37,2013-08-25 20:52:00,
2013-08-25 16:53:00,75.8,56.9,30.34,NE,45,4.5,5.8,52,0.00,BKN,OVC,0.00,WeatherDisplay:10.37,2013-08-25 20:53:00,
2013-08-25 16:54:00,75.6,57.8,30.34,NE,45,1.2,5.8,54,0.00,BKN,OVC,0.00,WeatherDisplay:10.37,2013-08-25 20:54:00,
2013-08-25 16:57:00,75.4,58.1,30.34,NE,46,0.3,2.3,55,0.00,BKN,OVC,0.00,WeatherDisplay:10.37,2013-08-25 20:57:00,
2013-08-25 16:58:00,75.4,58.6,30.34,NE,46,1.2,2.3,56,0.00,BKN,OVC,0.00,WeatherDisplay:10.37,2013-08-25 20:58:00,
2013-08-25 16:59:00,75.4,58.6,30.34,NE,46,3.0,5.0,56,0.00,BKN,OVC,0.00,WeatherDisplay:10.37,2013-08-25 20:59:00,
2013-08-25 17:02:00,75.6,57.3,30.35,ESE,102,3.6,8.0,53,0.00,BKN,OVC,0.00,WeatherDisplay:10.37,2013-08-25 21:02:00,
2013-08-25 17:04:00,75.8,57.4,30.35,East,100,6.1,9.2,53,0.00,BKN,OVC,0.00,WeatherDisplay:10.37,2013-08-25 21:04:00,
2013-08-25 17:06:00,76.0,56.0,30.35,East,98,5.4,6.9,50,0.00,BKN,OVC,0.00,WeatherDisplay:10.37,2013-08-25 21:06:00,
2013-08-25 17:08:00,76.1,56.7,30.35,East,91,5.7,9.2,51,0.00,BKN,OVC,0.00,WeatherDisplay:10.37,2013-08-25 21:08:00,
2013-08-25 17:09:00,76.3,57.4,30.35,East,80,6.3,10.0,52,0.00,BKN,OVC,0.00,WeatherDisplay:10.37,2013-08-25 21:09:00,
2013-08-25 17:10:00,76.3,56.8,30.35,East,85,9.1,11.5,51,0.00,BKN,OVC,0.00,WeatherDisplay:10.37,2013-08-25 21:10:00,
2013-08-25 17:12:00,76.3,56.8,30.35,ESE,116,8.2,11.5,51,0.00,BKN,OVC,0.00,WeatherDisplay:10.37,2013-08-25 21:12:00,
2013-08-25 17:14:00,76.5,58.1,30.35,ESE,106,4.9,9.2,53,0.00,BKN,OVC,0.00,WeatherDisplay:10.37,2013-08-25 21:14:00,
2013-08-25 17:15:00,76.7,57.7,30.35,ENE,67,4.8,6.9,52,0.00,BKN,OVC,0.00,WeatherDisplay:10.37,2013-08-25 21:15:00,
2013-08-25 17:16:00,76.7,57.7,30.35,NE,40,7.4,11.5,52,0.00,BKN,OVC,0.00,WeatherDisplay:10.37,2013-08-25 21:16:00,
2013-08-25 17:17:00,76.5,58.1,30.35,ENE,59,8.0,11.5,53,0.00,BKN,OVC,0.00,WeatherDisplay:10.37,2013-08-25 21:17:00,
2013-08-25 17:18:00,76.5,58.1,30.34,ENE,71,7.5,11.5,53,0.00,BKN,OVC,0.00,WeatherDisplay:10.37,2013-08-25 21:18:00,
2013-08-25 17:20:00,76.0,58.2,30.34,NE,52,4.6,6.9,54,0.00,BKN,OVC,0.00,WeatherDisplay:10.37,2013-08-25 21:20:00,
2013-08-25 17:21:00,75.8,56.9,30.34,NE,53,6.7,10.4,52,0.00,BKN,OVC,0.00,WeatherDisplay:10.37,2013-08-25 21:21:00,
2013-08-25 17:22:00,75.6,56.7,30.34,ENE,69,6.4,11.0,52,0.00,BKN,OVC,0.00,WeatherDisplay:10.37,2013-08-25 21:22:00,
2013-08-25 17:23:00,75.4,57.1,30.34,ENE,72,7.5,11.5,53,0.00,BKN,OVC,0.00,WeatherDisplay:10.37,2013-08-25 21:23:00,
2013-08-25 17:25:00,74.9,56.6,30.34,ENE,59,6.7,9.2,53,0.00,BKN,OVC,0.00,WeatherDisplay:10.37,2013-08-25 21:25:00,
2013-08-25 17:27:00,74.9,56.6,30.34,ENE,78,5.6,9.2,53,0.00,BKN,OVC,0.00,WeatherDisplay:10.37,2013-08-25 21:27:00,
2013-08-25 17:28:00,74.7,56.9,30.34,ENE,77,4.7,10.4,54,0.00,BKN,OVC,0.00,WeatherDisplay:10.37,2013-08-25 21:28:00,
2013-08-25 17:31:00,74.7,56.9,30.34,ENE,75,3.7,6.9,54,0.00,BKN,OVC,0.00,WeatherDisplay:10.37,2013-08-25 21:31:00,
2013-08-25 17:32:00,74.9,57.1,30.34,ENE,74,2.3,5.8,54,0.00,BKN,OVC,0.00,WeatherDisplay:10.37,2013-08-25 21:32:00,
2013-08-25 17:33:00,74.9,57.6,30.34,ENE,74,2.9,5.0,55,0.00,BKN,OVC,0.00,WeatherDisplay:10.37,2013-08-25 21:33:00,
2013-08-25 17:34:00,75.1,57.3,30.34,East,88,8.0,9.0,54,0.00,BKN,OVC,0.00,WeatherDisplay:10.37,2013-08-25 21:34:00,
2013-08-25 17:36:00,75.6,57.3,30.35,East,88,7.0,11.5,53,0.00,BKN,OVC,0.00,WeatherDisplay:10.37,2013-08-25 21:36:00,
2013-08-25 17:37:00,75.6,57.3,30.35,ESE,103,9.1,11.5,53,0.00,BKN,OVC,0.00,WeatherDisplay:10.37,2013-08-25 21:37:00,
2013-08-25 17:38:00,75.8,56.9,30.35,East,85,7.9,13.8,52,0.00,BKN,OVC,0.00,WeatherDisplay:10.37,2013-08-25 21:38:00,
2013-08-25 17:39:00,76.0,57.1,30.35,East,80,6.2,11.5,52,0.00,BKN,OVC,0.00,WeatherDisplay:10.37,2013-08-25 21:39:00,
2013-08-25 17:42:00,76.1,56.7,30.35,ESE,110,5.6,9.0,51,0.00,BKN,OVC,0.00,WeatherDisplay:10.37,2013-08-25 21:42:00,
2013-08-25 17:43:00,76.1,56.1,30.35,East,99,8.3,11.0,50,0.00,BKN,OVC,0.00,WeatherDisplay:10.37,2013-08-25 21:43:00,
2013-08-25 17:45:00,76.1,56.7,30.35,NE,45,5.8,11.5,51,0.00,BKN,OVC,0.00,WeatherDisplay:10.37,2013-08-25 21:45:00,
2013-08-25 17:48:00,76.1,56.1,30.35,ENE,66,6.2,11.5,50,0.00,BKN,OVC,0.00,WeatherDisplay:10.37,2013-08-25 21:48:00,
2013-08-25 17:49:00,76.1,56.1,30.35,ENE,69,5.6,9.2,50,0.00,BKN,OVC,0.00,WeatherDisplay:10.37,2013-08-25 21:49:00,
2013-08-25 17:50:00,76.1,56.1,30.35,ENE,63,5.7,8.0,50,0.00,BKN,OVC,0.00,WeatherDisplay:10.37,2013-08-25 21:50:00,
2013-08-25 17:53:00,76.0,56.0,30.35,ENE,67,6.7,11.5,50,0.00,BKN,OVC,0.00,WeatherDisplay:10.37,2013-08-25 21:53:00,
2013-08-25 17:54:00,76.0,56.0,30.35,ENE,67,5.7,9.2,50,0.00,BKN,OVC,0.00,WeatherDisplay:10.37,2013-08-25 21:54:00,
2013-08-25 17:55:00,76.0,56.0,30.35,ENE,78,6.7,6.9,50,0.00,BKN,OVC,0.00,WeatherDisplay:10.37,2013-08-25 21:55:00,
2013-08-25 17:59:00,76.0,54.9,30.35,ENE,77,4.8,6.9,48,0.00,BKN,OVC,0.00,WeatherDisplay:10.37,2013-08-25 21:59:00,
2013-08-25 18:00:00,76.0,55.5,30.35,ENE,77,4.0,4.6,49,0.00,BKN,OVC,0.00,WeatherDisplay:10.37,2013-08-25 22:00:00,
2013-08-25 18:01:00,76.0,55.5,30.35,ENE,75,4.4,7.0,49,0.00,BKN,OVC,0.00,WeatherDisplay:10.37,2013-08-25 22:01:00,
2013-08-25 18:04:00,75.8,55.8,30.35,ENE,76,4.9,8.1,50,0.00,SCT,OVC,0.00,WeatherDisplay:10.37,2013-08-25 22:04:00,
2013-08-25 18:06:00,75.8,55.8,30.35,ENE,71,4.0,8.1,50,0.00,SCT,OVC,0.00,WeatherDisplay:10.37,2013-08-25 22:06:00,
2013-08-25 18:08:00,75.8,55.8,30.35,ENE,77,4.3,6.9,50,0.00,SCT,OVC,0.00,WeatherDisplay:10.37,2013-08-25 22:08:00,
2013-08-25 18:10:00,75.6,55.6,30.35,ENE,61,3.5,9.2,50,0.00,SCT,OVC,0.00,WeatherDisplay:10.37,2013-08-25 22:10:00,
2013-08-25 18:11:00,75.6,56.7,30.35,ESE,116,5.3,9.2,52,0.00,SCT,OVC,0.00,WeatherDisplay:10.37,2013-08-25 22:11:00,
2013-08-25 18:12:00,75.6,56.2,30.35,ESE,118,5.9,9.2,51,0.00,SCT,OVC,0.00,WeatherDisplay:10.37,2013-08-25 22:12:00,
2013-08-25 18:13:00,75.6,56.2,30.35,East,90,3.7,6.9,51,0.00,SCT,OVC,0.00,WeatherDisplay:10.37,2013-08-25 22:13:00,
2013-08-25 18:15:00,75.8,56.4,30.34,ESE,105,6.3,11.5,51,0.00,SCT,OVC,0.00,WeatherDisplay:10.37,2013-08-25 22:15:00,
2013-08-25 18:17:00,75.8,56.4,30.34,East,87,4.3,11.5,51,0.00,SCT,OVC,0.00,WeatherDisplay:10.37,2013-08-25 22:17:00,
2013-08-25 18:18:00,75.8,55.3,30.34,East,82,8.5,11.5,49,0.00,SCT,OVC,0.00,WeatherDisplay:10.37,2013-08-25 22:18:00,
2013-08-25 18:19:00,75.8,55.8,30.34,East,84,8.2,11.5,50,0.00,SCT,OVC,0.00,WeatherDisplay:10.37,2013-08-25 22:19:00,
2013-08-25 18:21:00,75.6,56.2,30.34,East,86,4.6,6.9,51,0.00,SCT,OVC,0.00,WeatherDisplay:10.37,2013-08-25 22:21:00,
2013-08-25 18:23:00,75.6,55.6,30.34,East,94,5.3,9.2,50,0.00,SCT,OVC,0.00,WeatherDisplay:10.37,2013-08-25 22:23:00,
2013-08-25 18:24:00,75.6,55.6,30.34,East,94,3.5,5.8,50,0.00,SCT,OVC,0.00,WeatherDisplay:10.37,2013-08-25 22:24:00,
2013-08-25 18:25:00,75.6,56.2,30.34,East,97,4.7,6.0,51,0.00,SCT,OVC,0.00,WeatherDisplay:10.37,2013-08-25 22:25:00,
2013-08-25 18:27:00,75.8,55.8,30.34,East,96,3.8,7.0,50,0.00,SCT,OVC,0.00,WeatherDisplay:10.37,2013-08-25 22:27:00,
2013-08-25 18:28:00,75.8,55.8,30.34,East,84,6.3,8.1,50,0.00,SCT,OVC,0.00,WeatherDisplay:10.37,2013-08-25 22:28:00,
2013-08-25 18:29:00,75.8,55.3,30.34,East,86,6.5,9.2,49,0.00,SCT,OVC,0.00,WeatherDisplay:10.37,2013-08-25 22:29:00,
2013-08-25 18:30:00,75.6,56.2,30.34,East,83,4.7,9.2,51,0.00,SCT,OVC,0.00,WeatherDisplay:10.37,2013-08-25 22:30:00,
2013-08-25 18:31:00,75.6,55.1,30.34,East,83,5.6,9.2,49,0.00,SCT,OVC,0.00,WeatherDisplay:10.37,2013-08-25 22:31:00,
2013-08-25 18:33:00,75.6,55.6,30.34,ESE,111,4.7,6.9,50,0.00,SCT,OVC,0.00,WeatherDisplay:10.37,2013-08-25 22:33:00,
2013-08-25 18:34:00,75.6,56.2,30.34,ESE,111,4.2,5.8,51,0.00,SCT,OVC,0.00,WeatherDisplay:10.37,2013-08-25 22:34:00,
2013-08-25 18:36:00,75.6,56.7,30.34,ESE,111,2.6,5.0,52,0.00,SCT,OVC,0.00,WeatherDisplay:10.37,2013-08-25 22:36:00,
2013-08-25 18:37:00,75.6,56.2,30.34,ESE,105,5.1,6.0,51,0.00,SCT,OVC,0.00,WeatherDisplay:10.37,2013-08-25 22:37:00,
2013-08-25 18:38:00,75.6,56.2,30.34,ESE,106,5.6,6.9,51,0.00,SCT,OVC,0.00,WeatherDisplay:10.37,2013-08-25 22:38:00,
2013-08-25 18:40:00,75.6,56.7,30.34,East,96,3.5,5.8,52,0.00,SCT,OVC,0.00,WeatherDisplay:10.37,2013-08-25 22:40:00,
2013-08-25 18:41:00,75.6,56.2,30.34,East,96,4.9,5.0,51,0.00,SCT,OVC,0.00,WeatherDisplay:10.37,2013-08-25 22:41:00,
2013-08-25 18:43:00,75.4,56.5,30.34,East,87,4.7,6.9,52,0.00,SCT,OVC,0.00,WeatherDisplay:10.37,2013-08-25 22:43:00,
2013-08-25 18:46:00,75.3,57.0,30.34,East,88,2.4,4.0,53,0.00,SCT,OVC,0.00,WeatherDisplay:10.37,2013-08-25 22:46:00,
2013-08-25 18:47:00,75.3,57.0,30.34,East,92,4.1,7.0,53,0.00,SCT,OVC,0.00,WeatherDisplay:10.37,2013-08-25 22:47:00,
2013-08-25 18:48:00,75.3,56.5,30.34,ESE,111,5.1,6.9,52,0.00,SCT,OVC,0.00,WeatherDisplay:10.37,2013-08-25 22:48:00,
2013-08-25 18:49:00,75.4,57.6,30.34,ESE,110,1.7,5.8,54,0.00,SCT,OVC,0.00,WeatherDisplay:10.37,2013-08-25 22:49:00,
2013-08-25 18:53:00,75.3,56.5,30.34,East,97,3.9,4.6,52,0.00,SCT,OVC,0.00,WeatherDisplay:10.37,2013-08-25 22:53:00,
2013-08-25 18:54:00,75.3,56.5,30.34,East,99,4.1,5.0,52,0.00,SCT,OVC,0.00,WeatherDisplay:10.37,2013-08-25 22:54:00,
2013-08-25 18:55:00,75.3,56.5,30.34,East,101,4.9,9.0,52,0.00,SCT,OVC,0.00,WeatherDisplay:10.37,2013-08-25 22:55:00,
2013-08-25 18:59:00,75.3,55.9,30.34,ESE,103,5.0,9.0,51,0.00,SCT,OVC,0.00,WeatherDisplay:10.37,2013-08-25 22:59:00,
2013-08-25 19:00:00,75.3,55.9,30.34,ESE,107,7.0,9.2,51,0.00,SCT,OVC,0.00,WeatherDisplay:10.37,2013-08-25 23:00:00,
2013-08-25 19:01:00,75.1,55.7,30.33,ESE,107,5.0,10.4,51,0.00,SCT,OVC,0.00,WeatherDisplay:10.37,2013-08-25 23:01:00,
2013-08-25 19:02:00,75.1,56.3,30.33,ESE,107,4.5,6.9,52,0.00,SCT,OVC,0.00,WeatherDisplay:10.37,2013-08-25 23:02:00,
2013-08-25 19:04:00,75.1,56.8,30.33,ESE,107,4.9,6.9,53,0.00,SCT,OVC,0.00,WeatherDisplay:10.37,2013-08-25 23:04:00,
2013-08-25 19:06:00,74.9,56.6,30.33,ESE,107,2.6,4.6,53,0.00,SCT,OVC,0.00,WeatherDisplay:10.37,2013-08-25 23:06:00,
2013-08-25 19:07:00,74.9,56.6,30.33,ESE,107,3.8,4.6,53,0.00,SCT,OVC,0.00,WeatherDisplay:10.37,2013-08-25 23:07:00,
2013-08-25 19:08:00,74.9,56.6,30.33,ESE,107,3.3,4.6,53,0.00,SCT,OVC,0.00,WeatherDisplay:10.37,2013-08-25 23:08:00,
2013-08-25 19:12:00,74.7,56.9,30.33,ESE,106,3.0,4.6,54,0.00,SCT,OVC,0.00,WeatherDisplay:10.37,2013-08-25 23:12:00,
2013-08-25 19:13:00,74.7,56.9,30.33,East,98,5.2,5.2,54,0.00,SCT,OVC,0.00,WeatherDisplay:10.37,2013-08-25 23:13:00,
2013-08-25 19:14:00,74.7,56.9,30.33,East,99,5.7,6.9,54,0.00,SCT,OVC,0.00,WeatherDisplay:10.37,2013-08-25 23:14:00,
2013-08-25 19:18:00,74.6,57.4,30.33,East,98,1.9,7.0,55,0.00,SCT,OVC,0.00,WeatherDisplay:10.37,2013-08-25 23:18:00,
2013-08-25 19:19:00,74.6,57.4,30.33,East,98,3.7,6.9,55,0.00,SCT,OVC,0.00,WeatherDisplay:10.37,2013-08-25 23:19:00,
2013-08-25 19:20:00,74.4,56.7,30.33,East,98,3.5,6.9,54,0.00,SCT,OVC,0.00,WeatherDisplay:10.37,2013-08-25 23:20:00,
2013-08-25 19:24:00,74.2,56.5,30.34,East,101,3.0,4.0,54,0.00,SCT,OVC,0.00,WeatherDisplay:10.37,2013-08-25 23:24:00,
2013-08-25 19:25:00,74.2,56.5,30.34,East,101,3.7,3.7,54,0.00,SCT,OVC,0.00,WeatherDisplay:10.37,2013-08-25 23:25:00,
2013-08-25 19:26:00,74.2,56.5,30.34,ESE,102,2.8,6.0,54,0.00,SCT,OVC,0.00,WeatherDisplay:10.37,2013-08-25 23:26:00,
2013-08-25 19:27:00,74.2,56.5,30.34,ESE,102,0.3,5.8,54,0.00,SCT,OVC,0.00,WeatherDisplay:10.37,2013-08-25 23:27:00,
2013-08-25 19:30:00,74.0,56.3,30.33,ESE,102,3.0,4.6,54,0.00,SCT,OVC,0.00,WeatherDisplay:10.37,2013-08-25 23:30:00,
2013-08-25 19:31:00,74.0,56.8,30.33,ESE,102,0.9,3.5,55,0.00,SCT,OVC,0.00,WeatherDisplay:10.37,2013-08-25 23:31:00,
2013-08-25 19:32:00,74.0,56.8,30.33,ESE,102,0.0,3.5,55,0.00,SCT,OVC,0.00,WeatherDisplay:10.37,2013-08-25 23:32:00,
2013-08-25 19:33:00,74.0,56.8,30.33,ESE,102,1.5,3.5,55,0.00,SCT,OVC,0.00,WeatherDisplay:10.37,2013-08-25 23:33:00,
2013-08-25 19:35:00,73.9,56.7,30.33,ESE,102,0.0,3.5,55,0.00,SCT,OVC,0.00,WeatherDisplay:10.37,2013-08-25 23:35:00,
2013-08-25 19:36:00,73.9,57.2,30.33,ESE,102,1.5,3.5,56,0.00,SCT,OVC,0.00,WeatherDisplay:10.37,2013-08-25 23:36:00,
2013-08-25 19:37:00,73.9,57.2,30.33,ESE,102,0.3,3.5,56,0.00,SCT,OVC,0.00,WeatherDisplay:10.37,2013-08-25 23:37:00,
2013-08-25 19:39:00,73.9,57.2,30.33,ESE,102,0.0,2.3,56,0.00,SCT,OVC,0.00,WeatherDisplay:10.37,2013-08-25 23:39:00,
2013-08-25 19:40:00,73.7,57.0,30.33,ESE,102,0.0,0.0,56,0.00,SCT,OVC,0.00,WeatherDisplay:10.37,2013-08-25 23:40:00,
2013-08-25 19:42:00,73.7,57.5,30.33,ESE,102,0.0,0.0,57,0.00,SCT,OVC,0.00,WeatherDisplay:10.37,2013-08-25 23:42:00,
2013-08-25 19:43:00,73.7,58.0,30.33,ESE,102,0.0,0.0,58,0.00,SCT,OVC,0.00,WeatherDisplay:10.37,2013-08-25 23:43:00,
2013-08-25 19:44:00,73.5,57.8,30.33,ESE,102,0.0,0.0,58,0.00,SCT,OVC,0.00,WeatherDisplay:10.37,2013-08-25 23:44:00,
2013-08-25 19:45:00,73.5,57.8,30.33,ESE,102,0.0,0.0,58,0.00,SCT,OVC,0.00,WeatherDisplay:10.37,2013-08-25 23:45:00,
2013-08-25 19:46:00,73.2,58.0,30.34,ESE,102,0.0,0.0,59,0.00,SCT,OVC,0.00,WeatherDisplay:10.37,2013-08-25 23:46:00,
2013-08-25 19:47:00,73.2,58.0,30.34,ESE,102,0.0,0.0,59,0.00,SCT,OVC,0.00,WeatherDisplay:10.37,2013-08-25 23:47:00,
2013-08-25 19:48:00,73.0,58.3,30.34,ESE,102,0.0,0.0,60,0.00,SCT,OVC,0.00,WeatherDisplay:10.37,2013-08-25 23:48:00,
2013-08-25 19:50:00,72.8,58.6,30.34,ESE,102,0.0,0.0,61,0.00,SCT,OVC,0.00,WeatherDisplay:10.37,2013-08-25 23:50:00,
2013-08-25 19:51:00,72.7,58.5,30.34,ESE,102,0.0,0.0,61,0.00,SCT,OVC,0.00,WeatherDisplay:10.37,2013-08-25 23:51:00,
2013-08-25 19:52:00,72.5,58.7,30.34,ESE,102,0.0,0.0,62,0.00,SCT,OVC,0.00,WeatherDisplay:10.37,2013-08-25 23:52:00,
2013-08-25 19:53:00,72.3,58.5,30.34,ESE,102,0.0,0.0,62,0.00,SCT,OVC,0.00,WeatherDisplay:10.37,2013-08-25 23:53:00,
2013-08-25 19:54:00,72.3,59.0,30.34,ESE,102,0.0,0.0,63,0.00,SCT,OVC,0.00,WeatherDisplay:10.37,2013-08-25 23:54:00,
2013-08-25 19:55:00,72.0,59.6,30.34,ESE,102,0.0,0.0,65,0.00,SCT,OVC,0.00,WeatherDisplay:10.37,2013-08-25 23:55:00,
2013-08-25 19:57:00,71.8,59.8,30.34,ESE,102,0.0,0.0,66,0.00,SCT,OVC,0.00,WeatherDisplay:10.37,2013-08-25 23:57:00,
2013-08-25 19:58:00,71.5,59.5,30.34,ESE,102,0.0,0.0,66,0.00,SCT,OVC,0.00,WeatherDisplay:10.37,2013-08-25 23:58:00,
2013-08-25 19:59:00,71.3,59.8,30.34,ESE,102,0.0,0.0,67,0.00,SCT,OVC,0.00,WeatherDisplay:10.37,2013-08-25 23:59:00,
2013-08-25 20:02:00,70.6,61.1,30.34,ESE,102,0.0,0.0,72,0.00,SCT,OVC,0.00,WeatherDisplay:10.37,2013-08-26 00:02:00,
2013-08-25 20:04:00,70.1,61.0,30.34,ESE,102,0.0,0.0,73,0.00,SCT,OVC,0.00,WeatherDisplay:10.37,2013-08-26 00:04:00,
2013-08-25 20:05:00,69.9,60.8,30.34,ESE,102,0.0,0.0,73,0.00,SCT,OVC,0.00,WeatherDisplay:10.37,2013-08-26 00:05:00,
2013-08-25 20:08:00,69.3,61.0,30.34,ESE,102,0.0,0.0,75,0.00,SCT,OVC,0.00,WeatherDisplay:10.37,2013-08-26 00:08:00,
2013-08-25 20:09:00,68.9,60.3,30.34,ESE,102,0.0,0.0,74,0.00,SCT,OVC,0.00,WeatherDisplay:10.37,2013-08-26 00:09:00,
2013-08-25 20:10:00,68.8,60.2,30.34,ESE,102,0.0,0.0,74,0.00,SCT,OVC,0.00,WeatherDisplay:10.37,2013-08-26 00:10:00,
2013-08-25 20:11:00,68.6,60.0,30.33,ESE,102,0.0,0.0,74,0.00,SCT,OVC,0.00,WeatherDisplay:10.37,2013-08-26 00:11:00,
2013-08-25 20:13:00,68.3,60.1,30.33,ESE,102,0.0,0.0,75,0.00,SCT,OVC,0.00,WeatherDisplay:10.37,2013-08-26 00:13:00,
2013-08-25 20:14:00,68.3,60.1,30.33,ESE,102,0.0,0.0,75,0.00,SCT,OVC,0.00,WeatherDisplay:10.37,2013-08-26 00:14:00,
2013-08-25 20:15:00,68.1,59.9,30.33,ESE,102,0.0,0.0,75,0.00,SCT,OVC,0.00,WeatherDisplay:10.37,2013-08-26 00:15:00,
2013-08-25 20:17:00,67.8,60.3,30.33,ESE,102,0.0,0.0,77,0.00,SCT,OVC,0.00,WeatherDisplay:10.37,2013-08-26 00:17:00,
2013-08-25 20:18:00,67.8,60.3,30.33,ESE,102,0.0,0.0,77,0.00,SCT,OVC,0.00,WeatherDisplay:10.37,2013-08-26 00:18:00,
2013-08-25 20:19:00,67.6,60.1,30.33,ESE,102,0.0,0.0,77,0.00,SCT,OVC,0.00,WeatherDisplay:10.37,2013-08-26 00:19:00,
2013-08-25 20:22:00,67.4,60.3,30.33,ESE,102,0.0,0.0,78,0.00,SCT,OVC,0.00,WeatherDisplay:10.37,2013-08-26 00:22:00,
2013-08-25 20:23:00,67.3,60.2,30.33,ESE,102,0.0,0.0,78,0.00,SCT,OVC,0.00,WeatherDisplay:10.37,2013-08-26 00:23:00,
2013-08-25 20:25:00,67.1,60.0,30.33,ESE,102,0.0,0.0,78,0.00,SCT,OVC,0.00,WeatherDisplay:10.37,2013-08-26 00:25:00,
2013-08-25 20:27:00,66.9,60.2,30.33,ESE,102,0.0,0.0,79,0.00,SCT,OVC,0.00,WeatherDisplay:10.37,2013-08-26 00:27:00,
2013-08-25 20:28:00,66.9,60.2,30.33,ESE,102,0.0,0.0,79,0.00,SCT,OVC,0.00,WeatherDisplay:10.37,2013-08-26 00:28:00,
2013-08-25 20:30:00,66.8,60.1,30.33,ESE,102,0.0,0.0,79,0.00,SCT,OVC,0.00,WeatherDisplay:10.37,2013-08-26 00:30:00,
2013-08-25 20:32:00,66.8,60.4,30.34,ESE,102,0.0,0.0,80,0.00,SCT,OVC,0.00,WeatherDisplay:10.37,2013-08-26 00:32:00,
2013-08-25 20:33:00,66.8,60.8,30.34,ESE,102,0.0,0.0,81,0.00,SCT,OVC,0.00,WeatherDisplay:10.37,2013-08-26 00:33:00,
2013-08-25 20:35:00,66.4,60.7,30.34,ESE,102,0.0,0.0,82,0.00,SCT,OVC,0.00,WeatherDisplay:10.37,2013-08-26 00:35:00,
2013-08-25 20:37:00,66.1,60.8,30.34,ESE,102,0.0,0.0,83,0.00,SCT,OVC,0.00,WeatherDisplay:10.37,2013-08-26 00:37:00,
2013-08-25 20:38:00,66.1,60.8,30.34,ESE,102,0.0,0.0,83,0.00,SCT,OVC,0.00,WeatherDisplay:10.37,2013-08-26 00:38:00,
2013-08-25 20:40:00,65.8,60.8,30.34,ESE,102,0.0,0.0,84,0.00,SCT,OVC,0.00,WeatherDisplay:10.37,2013-08-26 00:40:00,
2013-08-25 20:43:00,65.5,60.5,30.34,ESE,102,0.0,0.0,84,0.00,SCT,OVC,0.00,WeatherDisplay:10.37,2013-08-26 00:43:00,
2013-08-25 20:44:00,65.5,60.5,30.34,ESE,102,0.0,0.0,84,0.00,SCT,OVC,0.00,WeatherDisplay:10.37,2013-08-26 00:44:00,
2013-08-25 20:45:00,65.2,60.6,30.34,ESE,102,0.0,0.0,85,0.00,SCT,OVC,0.00,WeatherDisplay:10.37,2013-08-26 00:45:00,
2013-08-25 20:48:00,64.8,60.5,30.35,ESE,102,0.0,0.0,86,0.00,SCT,OVC,0.00,WeatherDisplay:10.37,2013-08-26 00:48:00,
2013-08-25 20:49:00,64.8,60.5,30.35,ESE,102,0.0,0.0,86,0.00,SCT,OVC,0.00,WeatherDisplay:10.37,2013-08-26 00:49:00,
2013-08-25 20:50:00,64.7,60.4,30.35,ESE,102,0.0,0.0,86,0.00,SCT,OVC,0.00,WeatherDisplay:10.37,2013-08-26 00:50:00,
2013-08-25 20:51:00,64.7,60.4,30.35,ESE,102,0.0,0.0,86,0.00,SCT,OVC,0.00,WeatherDisplay:10.37,2013-08-26 00:51:00,
2013-08-25 20:54:00,64.3,60.3,30.35,ESE,102,0.0,0.0,87,0.00,SCT,OVC,0.00,WeatherDisplay:10.37,2013-08-26 00:54:00,
2013-08-25 20:55:00,64.2,60.6,30.35,ESE,102,0.0,0.0,88,0.00,SCT,OVC,0.00,WeatherDisplay:10.37,2013-08-26 00:55:00,
2013-08-25 20:57:00,64.2,60.6,30.35,ESE,102,0.0,0.0,88,0.00,SCT,OVC,0.00,WeatherDisplay:10.37,2013-08-26 00:57:00,
2013-08-25 20:59:00,64.2,60.6,30.35,ESE,102,0.0,0.0,88,0.00,SCT,OVC,0.00,WeatherDisplay:10.37,2013-08-26 00:59:00,
2013-08-25 21:00:00,64.3,60.7,30.35,ESE,102,0.0,0.0,88,0.00,SCT,OVC,0.00,WeatherDisplay:10.37,2013-08-26 01:00:00,
2013-08-25 21:02:00,64.5,60.9,30.34,ESE,102,0.0,0.0,88,0.00,CLR,OVC,0.00,WeatherDisplay:10.37,2013-08-26 01:02:00,
2013-08-25 21:03:00,64.5,60.9,30.34,ESE,102,0.0,0.0,88,0.00,CLR,OVC,0.00,WeatherDisplay:10.37,2013-08-26 01:03:00,
2013-08-25 21:04:00,64.5,60.9,30.34,ESE,102,0.0,0.0,88,0.00,CLR,OVC,0.00,WeatherDisplay:10.37,2013-08-26 01:04:00,
2013-08-25 21:06:00,64.5,60.9,30.34,ESE,102,0.0,0.0,88,0.00,CLR,OVC,0.00,WeatherDisplay:10.37,2013-08-26 01:06:00,
2013-08-25 21:08:00,64.3,60.7,30.34,ESE,102,0.0,0.0,88,0.00,CLR,OVC,0.00,WeatherDisplay:10.37,2013-08-26 01:08:00,
2013-08-25 21:09:00,64.3,60.7,30.34,ESE,102,0.0,0.0,88,0.00,CLR,OVC,0.00,WeatherDisplay:10.37,2013-08-26 01:09:00,
2013-08-25 21:10:00,64.2,60.6,30.34,ESE,102,0.0,0.0,88,0.00,CLR,OVC,0.00,WeatherDisplay:10.37,2013-08-26 01:10:00,
2013-08-25 21:11:00,64.2,60.6,30.34,ESE,102,0.0,0.0,88,0.00,CLR,OVC,0.00,WeatherDisplay:10.37,2013-08-26 01:11:00,
2013-08-25 21:13:00,64.0,60.4,30.34,ESE,102,0.0,0.0,88,0.00,CLR,OVC,0.00,WeatherDisplay:10.37,2013-08-26 01:13:00,
2013-08-25 21:15:00,63.9,60.3,30.34,ESE,102,0.0,0.0,88,0.00,CLR,OVC,0.00,WeatherDisplay:10.37,2013-08-26 01:15:00,
2013-08-25 21:16:00,63.9,60.3,30.34,ESE,102,0.0,0.0,88,0.00,CLR,OVC,0.00,WeatherDisplay:10.37,2013-08-26 01:16:00,
2013-08-25 21:20:00,63.4,59.8,30.34,ESE,102,0.0,0.0,88,0.00,CLR,OVC,0.00,WeatherDisplay:10.37,2013-08-26 01:20:00,
2013-08-25 21:21:00,63.4,59.8,30.34,ESE,102,0.0,0.0,88,0.00,CLR,OVC,0.00,WeatherDisplay:10.37,2013-08-26 01:21:00,
2013-08-25 21:25:00,63.1,59.8,30.34,ESE,102,0.0,0.0,89,0.00,CLR,OVC,0.00,WeatherDisplay:10.37,2013-08-26 01:25:00,
2013-08-25 21:26:00,63.1,60.1,30.34,ESE,102,0.0,0.0,90,0.00,CLR,OVC,0.00,WeatherDisplay:10.37,2013-08-26 01:26:00,
2013-08-25 21:27:00,63.1,60.1,30.34,ESE,102,0.0,0.0,90,0.00,CLR,OVC,0.00,WeatherDisplay:10.37,2013-08-26 01:27:00,
2013-08-25 21:30:00,63.0,60.0,30.34,ESE,102,0.0,0.0,90,0.00,CLR,OVC,0.00,WeatherDisplay:10.37,2013-08-26 01:30:00,
2013-08-25 21:31:00,62.9,59.9,30.35,ESE,102,0.0,0.0,90,0.00,CLR,OVC,0.00,WeatherDisplay:10.37,2013-08-26 01:31:00,
2013-08-25 21:32:00,62.9,59.9,30.35,ESE,102,0.0,0.0,90,0.00,CLR,OVC,0.00,WeatherDisplay:10.37,2013-08-26 01:32:00,
2013-08-25 21:33:00,62.7,59.7,30.35,ESE,102,0.0,0.0,90,0.00,CLR,OVC,0.00,WeatherDisplay:10.37,2013-08-26 01:33:00,
2013-08-25 21:36:00,62.7,60.0,30.35,ESE,102,0.0,0.0,91,0.00,CLR,OVC,0.00,WeatherDisplay:10.37,2013-08-26 01:36:00,
2013-08-25 21:37:00,62.6,59.9,30.35,ESE,102,0.0,0.0,91,0.00,CLR,OVC,0.00,WeatherDisplay:10.37,2013-08-26 01:37:00,
2013-08-25 21:38:00,62.6,59.9,30.35,ESE,102,0.0,0.0,91,0.00,CLR,OVC,0.00,WeatherDisplay:10.37,2013-08-26 01:38:00,
2013-08-25 21:39:00,62.6,59.9,30.35,ESE,102,0.0,0.0,91,0.00,CLR,OVC,0.00,WeatherDisplay:10.37,2013-08-26 01:39:00,
2013-08-25 21:41:00,62.6,59.9,30.35,ESE,102,0.0,0.0,91,0.00,CLR,OVC,0.00,WeatherDisplay:10.37,2013-08-26 01:41:00,
2013-08-25 21:42:00,62.6,59.9,30.35,ESE,102,0.0,0.0,91,0.00,CLR,OVC,0.00,WeatherDisplay:10.37,2013-08-26 01:42:00,
2013-08-25 21:43:00,62.6,59.9,30.35,ESE,102,0.0,0.0,91,0.00,CLR,OVC,0.00,WeatherDisplay:10.37,2013-08-26 01:43:00,
2013-08-25 21:45:00,62.4,59.7,30.35,ESE,102,0.0,0.0,91,0.00,CLR,OVC,0.00,WeatherDisplay:10.37,2013-08-26 01:45:00,
2013-08-25 21:46:00,62.4,59.7,30.35,ESE,102,0.0,0.0,91,0.00,CLR,OVC,0.00,WeatherDisplay:10.37,2013-08-26 01:46:00,
2013-08-25 21:47:00,62.3,59.6,30.36,ESE,102,0.0,0.0,91,0.00,CLR,OVC,0.00,WeatherDisplay:10.37,2013-08-26 01:47:00,
2013-08-25 21:49:00,62.3,59.6,30.36,ESE,102,0.0,0.0,91,0.00,CLR,OVC,0.00,WeatherDisplay:10.37,2013-08-26 01:49:00,
2013-08-25 21:50:00,62.3,59.6,30.36,ESE,102,0.0,0.0,91,0.00,CLR,OVC,0.00,WeatherDisplay:10.37,2013-08-26 01:50:00,
2013-08-25 21:51:00,62.1,59.4,30.36,ESE,102,0.0,0.0,91,0.00,CLR,OVC,0.00,WeatherDisplay:10.37,2013-08-26 01:51:00,
2013-08-25 21:52:00,62.1,59.7,30.36,ESE,102,0.0,0.0,92,0.00,CLR,OVC,0.00,WeatherDisplay:10.37,2013-08-26 01:52:00,
2013-08-25 21:53:00,62.1,59.7,30.36,ESE,102,0.0,0.0,92,0.00,CLR,OVC,0.00,WeatherDisplay:10.37,2013-08-26 01:53:00,
2013-08-25 21:54:00,62.0,59.6,30.36,ESE,102,0.0,0.0,92,0.00,CLR,OVC,0.00,WeatherDisplay:10.37,2013-08-26 01:54:00,
2013-08-25 21:56:00,62.0,59.6,30.36,ESE,102,0.0,0.0,92,0.00,CLR,OVC,0.00,WeatherDisplay:10.37,2013-08-26 01:56:00,
2013-08-25 21:57:00,62.0,59.6,30.36,ESE,102,0.0,0.0,92,0.00,CLR,OVC,0.00,WeatherDisplay:10.37,2013-08-26 01:57:00,
2013-08-25 21:58:00,61.8,59.5,30.36,ESE,102,0.0,0.0,92,0.00,CLR,OVC,0.00,WeatherDisplay:10.37,2013-08-26 01:58:00,
2013-08-25 21:59:00,61.8,59.5,30.36,ESE,102,0.0,0.0,92,0.00,CLR,OVC,0.00,WeatherDisplay:10.37,2013-08-26 01:59:00,
2013-08-25 22:03:00,61.8,59.5,30.36,ESE,102,0.0,0.0,92,0.00,CLR,OVC,0.00,WeatherDisplay:10.37,2013-08-26 02:03:00,
2013-08-25 22:04:00,61.8,59.5,30.36,ESE,102,0.0,0.0,92,0.00,CLR,OVC,0.00,WeatherDisplay:10.37,2013-08-26 02:04:00,
2013-08-25 22:06:00,61.8,59.5,30.36,ESE,102,0.0,0.0,92,0.00,CLR,OVC,0.00,WeatherDisplay:10.37,2013-08-26 02:06:00,
2013-08-25 22:08:00,61.8,59.5,30.36,ESE,102,0.0,0.0,92,0.00,CLR,OVC,0.00,WeatherDisplay:10.37,2013-08-26 02:08:00,
2013-08-25 22:09:00,61.8,59.5,30.36,ESE,102,0.0,0.0,92,0.00,CLR,OVC,0.00,WeatherDisplay:10.37,2013-08-26 02:09:00,
2013-08-25 22:10:00,61.6,59.3,30.36,ESE,102,0.0,0.0,92,0.00,CLR,OVC,0.00,WeatherDisplay:10.37,2013-08-26 02:10:00,
2013-08-25 22:11:00,61.6,59.3,30.36,ESE,102,0.0,0.0,92,0.00,CLR,OVC,0.00,WeatherDisplay:10.37,2013-08-26 02:11:00,
2013-08-25 22:12:00,61.6,59.3,30.36,ESE,102,0.0,0.0,92,0.00,CLR,OVC,0.00,WeatherDisplay:10.37,2013-08-26 02:12:00,
2013-08-25 22:13:00,61.6,59.3,30.36,ESE,102,0.0,0.0,92,0.00,CLR,OVC,0.00,WeatherDisplay:10.37,2013-08-26 02:13:00,
2013-08-25 22:15:00,61.5,59.2,30.36,ESE,102,0.0,0.0,92,0.00,CLR,OVC,0.00,WeatherDisplay:10.37,2013-08-26 02:15:00,
2013-08-25 22:16:00,61.5,59.2,30.36,ESE,102,0.0,0.0,92,0.00,CLR,OVC,0.00,WeatherDisplay:10.37,2013-08-26 02:16:00,
2013-08-25 22:18:00,61.5,59.2,30.36,ESE,102,0.0,0.0,92,0.00,CLR,OVC,0.00,WeatherDisplay:10.37,2013-08-26 02:18:00,
2013-08-25 22:19:00,61.5,59.2,30.36,ESE,102,0.0,0.0,92,0.00,CLR,OVC,0.00,WeatherDisplay:10.37,2013-08-26 02:19:00,
2013-08-25 22:21:00,61.3,59.0,30.36,ESE,102,0.0,0.0,92,0.00,CLR,OVC,0.00,WeatherDisplay:10.37,2013-08-26 02:21:00,
2013-08-25 22:22:00,61.3,59.3,30.36,ESE,102,0.0,0.0,93,0.00,CLR,OVC,0.00,WeatherDisplay:10.37,2013-08-26 02:22:00,
2013-08-25 22:24:00,61.2,59.2,30.36,ESE,102,0.0,0.0,93,0.00,CLR,OVC,0.00,WeatherDisplay:10.37,2013-08-26 02:24:00,
2013-08-25 22:26:00,61.0,58.7,30.36,ESE,102,0.0,0.0,92,0.00,CLR,OVC,0.00,WeatherDisplay:10.37,2013-08-26 02:26:00,
2013-08-25 22:27:00,60.9,58.6,30.36,ESE,102,0.0,0.0,92,0.00,CLR,OVC,0.00,WeatherDisplay:10.37,2013-08-26 02:27:00,
2013-08-25 22:28:00,60.9,58.9,30.36,ESE,102,0.0,0.0,93,0.00,CLR,OVC,0.00,WeatherDisplay:10.37,2013-08-26 02:28:00,
2013-08-25 22:29:00,60.9,58.9,30.36,ESE,102,0.0,0.0,93,0.00,CLR,OVC,0.00,WeatherDisplay:10.37,2013-08-26 02:29:00,
2013-08-25 22:31:00,60.7,58.7,30.36,ESE,102,0.0,0.0,93,0.00,CLR,OVC,0.00,WeatherDisplay:10.37,2013-08-26 02:31:00,
2013-08-25 22:32:00,60.7,58.7,30.36,ESE,102,0.0,0.0,93,0.00,CLR,OVC,0.00,WeatherDisplay:10.37,2013-08-26 02:32:00,
2013-08-25 22:34:00,60.9,58.9,30.36,ESE,102,0.0,0.0,93,0.00,CLR,OVC,0.00,WeatherDisplay:10.37,2013-08-26 02:34:00,
2013-08-25 22:35:00,61.0,59.3,30.36,ESE,102,0.0,0.0,94,0.00,CLR,OVC,0.00,WeatherDisplay:10.37,2013-08-26 02:35:00,
2013-08-25 22:37:00,61.2,59.5,30.36,ESE,102,0.0,0.0,94,0.00,CLR,OVC,0.00,WeatherDisplay:10.37,2013-08-26 02:37:00,
2013-08-25 22:39:00,61.2,59.5,30.36,ESE,102,0.0,0.0,94,0.00,CLR,OVC,0.00,WeatherDisplay:10.37,2013-08-26 02:39:00,
2013-08-25 22:40:00,61.2,59.5,30.36,ESE,102,0.0,0.0,94,0.00,CLR,OVC,0.00,WeatherDisplay:10.37,2013-08-26 02:40:00,
2013-08-25 22:41:00,61.2,59.5,30.36,ESE,102,0.0,0.0,94,0.00,CLR,OVC,0.00,WeatherDisplay:10.37,2013-08-26 02:41:00,
2013-08-25 22:43:00,61.2,59.2,30.36,ESE,102,0.0,0.0,93,0.00,CLR,OVC,0.00,WeatherDisplay:10.37,2013-08-26 02:43:00,
2013-08-25 22:44:00,61.0,59.0,30.36,ESE,102,0.0,0.0,93,0.00,CLR,OVC,0.00,WeatherDisplay:10.37,2013-08-26 02:44:00,
2013-08-25 22:45:00,61.0,59.0,30.36,ESE,102,0.0,0.0,93,0.00,CLR,OVC,0.00,WeatherDisplay:10.37,2013-08-26 02:45:00,
2013-08-25 22:46:00,61.0,59.0,30.36,ESE,102,0.0,0.0,93,0.00,CLR,OVC,0.00,WeatherDisplay:10.37,2013-08-26 02:46:00,
2013-08-25 22:47:00,60.9,58.9,30.36,ESE,102,0.0,0.0,93,0.00,CLR,OVC,0.00,WeatherDisplay:10.37,2013-08-26 02:47:00,
2013-08-25 22:49:00,60.5,58.5,30.36,ESE,102,0.0,0.0,93,0.00,CLR,OVC,0.00,WeatherDisplay:10.37,2013-08-26 02:49:00,
2013-08-25 22:50:00,60.5,58.5,30.36,ESE,102,0.0,0.0,93,0.00,CLR,OVC,0.00,WeatherDisplay:10.37,2013-08-26 02:50:00,
2013-08-25 22:51:00,60.4,58.4,30.36,ESE,102,0.0,0.0,93,0.00,CLR,OVC,0.00,WeatherDisplay:10.37,2013-08-26 02:51:00,
2013-08-25 22:52:00,60.4,58.7,30.36,ESE,102,0.0,0.0,94,0.00,CLR,OVC,0.00,WeatherDisplay:10.37,2013-08-26 02:52:00,
2013-08-25 22:53:00,60.4,58.7,30.36,ESE,102,0.0,0.0,94,0.00,CLR,OVC,0.00,WeatherDisplay:10.37,2013-08-26 02:53:00,
2013-08-25 22:54:00,60.2,58.5,30.36,ESE,102,0.0,0.0,94,0.00,CLR,OVC,0.00,WeatherDisplay:10.37,2013-08-26 02:54:00,
2013-08-25 22:55:00,60.2,58.5,30.36,ESE,102,0.0,0.0,94,0.00,CLR,OVC,0.00,WeatherDisplay:10.37,2013-08-26 02:55:00,
2013-08-25 22:56:00,60.2,58.5,30.36,ESE,102,0.0,0.0,94,0.00,CLR,OVC,0.00,WeatherDisplay:10.37,2013-08-26 02:56:00,
2013-08-25 22:57:00,60.2,58.5,30.36,ESE,102,0.0,0.0,94,0.00,CLR,OVC,0.00,WeatherDisplay:10.37,2013-08-26 02:57:00,
2013-08-25 22:58:00,60.2,58.5,30.36,ESE,102,0.0,0.0,94,0.00,CLR,OVC,0.00,WeatherDisplay:10.37,2013-08-26 02:58:00,
2013-08-25 23:00:00,60.1,58.4,30.36,ESE,102,0.0,0.0,94,0.00,CLR,OVC,0.00,WeatherDisplay:10.37,2013-08-26 03:00:00,
2013-08-25 23:02:00,59.9,58.2,30.36,ESE,102,0.0,0.0,94,0.00,CLR,OVC,0.00,WeatherDisplay:10.37,2013-08-26 03:02:00,
2013-08-25 23:03:00,59.9,58.2,30.36,ESE,102,0.0,0.0,94,0.00,CLR,OVC,0.00,WeatherDisplay:10.37,2013-08-26 03:03:00,
2013-08-25 23:05:00,59.9,58.2,30.36,ESE,102,0.0,0.0,94,0.00,CLR,OVC,0.00,WeatherDisplay:10.37,2013-08-26 03:05:00,
2013-08-25 23:07:00,59.9,58.2,30.36,ESE,102,0.0,0.0,94,0.00,CLR,OVC,0.00,WeatherDisplay:10.37,2013-08-26 03:07:00,
2013-08-25 23:08:00,59.8,58.1,30.36,ESE,102,0.0,0.0,94,0.00,CLR,OVC,0.00,WeatherDisplay:10.37,2013-08-26 03:08:00,
2013-08-25 23:10:00,59.6,57.9,30.36,ESE,102,0.0,0.0,94,0.00,CLR,OVC,0.00,WeatherDisplay:10.37,2013-08-26 03:10:00,
2013-08-25 23:12:00,59.6,57.9,30.36,ESE,102,0.0,0.0,94,0.00,CLR,OVC,0.00,WeatherDisplay:10.37,2013-08-26 03:12:00,
2013-08-25 23:14:00,59.6,57.9,30.36,ESE,102,0.0,0.0,94,0.00,CLR,OVC,0.00,WeatherDisplay:10.37,2013-08-26 03:14:00,
2013-08-25 23:16:00,59.5,57.8,30.36,ESE,102,0.0,0.0,94,0.00,CLR,OVC,0.00,WeatherDisplay:10.37,2013-08-26 03:16:00,
2013-08-25 23:17:00,59.5,57.8,30.36,ESE,102,0.0,0.0,94,0.00,CLR,OVC,0.00,WeatherDisplay:10.37,2013-08-26 03:17:00,
2013-08-25 23:18:00,59.5,57.8,30.38,ESE,102,0.0,0.0,94,0.00,CLR,OVC,0.00,WeatherDisplay:10.37,2013-08-26 03:18:00,
2013-08-25 23:19:00,59.5,58.1,30.38,ESE,102,0.0,0.0,95,0.00,CLR,OVC,0.00,WeatherDisplay:10.37,2013-08-26 03:19:00,
2013-08-25 23:20:00,59.5,58.1,30.38,ESE,102,0.0,0.0,95,0.00,CLR,OVC,0.00,WeatherDisplay:10.37,2013-08-26 03:20:00,
2013-08-25 23:21:00,59.5,58.1,30.38,ESE,102,0.0,0.0,95,0.00,CLR,OVC,0.00,WeatherDisplay:10.37,2013-08-26 03:21:00,
2013-08-25 23:23:00,59.5,58.1,30.38,ESE,102,0.0,0.0,95,0.00,CLR,OVC,0.00,WeatherDisplay:10.37,2013-08-26 03:23:00,
2013-08-25 23:24:00,59.6,58.2,30.38,ESE,102,0.0,0.0,95,0.00,CLR,OVC,0.00,WeatherDisplay:10.37,2013-08-26 03:24:00,
2013-08-25 23:25:00,59.6,58.2,30.38,ESE,102,0.0,0.0,95,0.00,CLR,OVC,0.00,WeatherDisplay:10.37,2013-08-26 03:25:00,
2013-08-25 23:28:00,59.6,58.2,30.38,ESE,102,0.0,0.0,95,0.00,CLR,OVC,0.00,WeatherDisplay:10.37,2013-08-26 03:28:00,
2013-08-25 23:29:00,59.6,58.2,30.38,ESE,102,0.0,0.0,95,0.00,CLR,OVC,0.00,WeatherDisplay:10.37,2013-08-26 03:29:00,
2013-08-25 23:30:00,59.5,58.1,30.38,ESE,102,0.0,0.0,95,0.00,CLR,OVC,0.00,WeatherDisplay:10.37,2013-08-26 03:30:00,
2013-08-25 23:34:00,59.3,57.9,30.37,ESE,102,0.0,0.0,95,0.00,CLR,OVC,0.00,WeatherDisplay:10.37,2013-08-26 03:34:00,
2013-08-25 23:35:00,59.3,57.9,30.37,ESE,102,0.0,0.0,95,0.00,CLR,OVC,0.00,WeatherDisplay:10.37,2013-08-26 03:35:00,
2013-08-25 23:36:00,59.3,57.9,30.37,ESE,102,0.0,0.0,95,0.00,CLR,OVC,0.00,WeatherDisplay:10.37,2013-08-26 03:36:00,
2013-08-25 23:38:00,59.3,57.9,30.37,ESE,102,0.0,0.0,95,0.00,CLR,OVC,0.00,WeatherDisplay:10.37,2013-08-26 03:38:00,
2013-08-25 23:39:00,59.3,57.9,30.37,ESE,102,0.0,0.0,95,0.00,CLR,OVC,0.00,WeatherDisplay:10.37,2013-08-26 03:39:00,
2013-08-25 23:40:00,59.5,58.1,30.37,ESE,102,0.0,0.0,95,0.00,CLR,OVC,0.00,WeatherDisplay:10.37,2013-08-26 03:40:00,
2013-08-25 23:43:00,59.3,57.9,30.37,ESE,102,0.0,0.0,95,0.00,CLR,OVC,0.00,WeatherDisplay:10.37,2013-08-26 03:43:00,
2013-08-25 23:44:00,59.3,57.9,30.37,ESE,102,0.0,0.0,95,0.00,CLR,OVC,0.00,WeatherDisplay:10.37,2013-08-26 03:44:00,
2013-08-25 23:45:00,59.3,57.9,30.37,ESE,102,0.0,0.0,95,0.00,CLR,OVC,0.00,WeatherDisplay:10.37,2013-08-26 03:45:00,
2013-08-25 23:46:00,59.3,57.9,30.36,ESE,102,0.0,0.0,95,0.00,CLR,OVC,0.00,WeatherDisplay:10.37,2013-08-26 03:46:00,
2013-08-25 23:49:00,59.2,57.8,30.36,ESE,102,0.0,0.0,95,0.00,CLR,OVC,0.00,WeatherDisplay:10.37,2013-08-26 03:49:00,
2013-08-25 23:53:00,59.2,57.8,30.36,ESE,102,0.0,0.0,95,0.00,CLR,OVC,0.00,WeatherDisplay:10.37,2013-08-26 03:53:00,
2013-08-25 23:54:00,59.2,57.8,30.36,ESE,102,0.0,0.0,95,0.00,CLR,OVC,0.00,WeatherDisplay:10.37,2013-08-26 03:54:00,
2013-08-25 23:55:00,59.2,57.8,30.36,ESE,102,0.0,0.0,95,0.00,CLR,OVC,0.00,WeatherDisplay:10.37,2013-08-26 03:55:00,
2013-08-25 23:58:00,59.2,57.8,30.36,ESE,102,0.0,0.0,95,0.00,CLR,OVC,0.00,WeatherDisplay:10.37,2013-08-26 03:58:00,
2013-08-25 23:59:00,59.2,57.8,30.36,ESE,102,0.0,0.0,95,0.00,CLR,OVC,0.00,WeatherDisplay:10.37,2013-08-26 03:59:00,